<?xml version="1.0" encoding="UTF-8" standalone="no" ?>
<gpx xmlns="http://www.topografix.com/GPX/1/1" xmlns:xsi="http://www.w3.org/2001/XMLSchema-instance" xsi:schemaLocation="http://www.topografix.com/GPX/1/1 http://www.topografix.com/GPX/1/1/gpx.xsd" version="1.1" creator="VisuGPX - https://www.visugpx.com">
  <metadata>
    <name>Cahors, Lauzerte, Montauban, St Antonin</name>
    <desc><![CDATA[à supprimer]]></desc>
  </metadata>
  <trk>
    <name><![CDATA[Cahors, Lauzerte, Montauban, St Antonin]]></name>
    <trkseg>
      <trkpt lat="44.29636" lon="1.20574">
        <ele>172</ele>
        <time>2020-07-19T13:08:43.000Z</time>
      </trkpt>
      <trkpt lat="44.29623" lon="1.20571">
        <ele>172</ele>
        <time>2020-07-19T13:08:48.000Z</time>
      </trkpt>
      <trkpt lat="44.29615" lon="1.20555">
        <ele>171</ele>
        <time>2020-07-19T13:08:52.000Z</time>
      </trkpt>
      <trkpt lat="44.29605" lon="1.20531">
        <ele>170</ele>
        <time>2020-07-19T13:08:56.000Z</time>
      </trkpt>
      <trkpt lat="44.29596" lon="1.20505">
        <ele>170</ele>
        <time>2020-07-19T13:09:00.000Z</time>
      </trkpt>
      <trkpt lat="44.29585" lon="1.20472">
        <ele>171</ele>
        <time>2020-07-19T13:09:05.000Z</time>
      </trkpt>
      <trkpt lat="44.29577" lon="1.20448">
        <ele>171</ele>
        <time>2020-07-19T13:09:09.000Z</time>
      </trkpt>
      <trkpt lat="44.29569" lon="1.20426">
        <ele>172</ele>
        <time>2020-07-19T13:09:14.000Z</time>
      </trkpt>
      <trkpt lat="44.29565" lon="1.20413">
        <ele>172</ele>
        <time>2020-07-19T13:09:18.000Z</time>
      </trkpt>
      <trkpt lat="44.2956" lon="1.204">
        <ele>172</ele>
        <time>2020-07-19T13:09:22.000Z</time>
      </trkpt>
      <trkpt lat="44.29555" lon="1.20385">
        <ele>173</ele>
        <time>2020-07-19T13:09:27.000Z</time>
      </trkpt>
      <trkpt lat="44.29551" lon="1.2037">
        <ele>174</ele>
        <time>2020-07-19T13:09:32.000Z</time>
      </trkpt>
      <trkpt lat="44.29547" lon="1.20358">
        <ele>175</ele>
        <time>2020-07-19T13:09:37.000Z</time>
      </trkpt>
      <trkpt lat="44.29541" lon="1.20346">
        <ele>176</ele>
        <time>2020-07-19T13:09:42.000Z</time>
      </trkpt>
      <trkpt lat="44.29539" lon="1.20335">
        <ele>177</ele>
        <time>2020-07-19T13:09:46.000Z</time>
      </trkpt>
      <trkpt lat="44.29537" lon="1.20325">
        <ele>179</ele>
        <time>2020-07-19T13:09:50.000Z</time>
      </trkpt>
      <trkpt lat="44.29535" lon="1.20308">
        <ele>179</ele>
        <time>2020-07-19T13:09:54.000Z</time>
      </trkpt>
      <trkpt lat="44.29538" lon="1.20279">
        <ele>178</ele>
        <time>2020-07-19T13:09:58.000Z</time>
      </trkpt>
      <trkpt lat="44.29537" lon="1.2025">
        <ele>178</ele>
        <time>2020-07-19T13:10:02.000Z</time>
      </trkpt>
      <trkpt lat="44.29537" lon="1.20226">
        <ele>177</ele>
        <time>2020-07-19T13:10:06.000Z</time>
      </trkpt>
      <trkpt lat="44.2953" lon="1.20202">
        <ele>177</ele>
        <time>2020-07-19T13:10:11.000Z</time>
      </trkpt>
      <trkpt lat="44.29518" lon="1.2018">
        <ele>177</ele>
        <time>2020-07-19T13:10:16.000Z</time>
      </trkpt>
      <trkpt lat="44.29506" lon="1.20158">
        <ele>176</ele>
        <time>2020-07-19T13:10:20.000Z</time>
      </trkpt>
      <trkpt lat="44.29486" lon="1.20129">
        <ele>176</ele>
        <time>2020-07-19T13:10:25.000Z</time>
      </trkpt>
      <trkpt lat="44.29466" lon="1.20116">
        <ele>175</ele>
        <time>2020-07-19T13:10:29.000Z</time>
      </trkpt>
      <trkpt lat="44.29448" lon="1.20101">
        <ele>174</ele>
        <time>2020-07-19T13:10:33.000Z</time>
      </trkpt>
      <trkpt lat="44.29434" lon="1.20083">
        <ele>173</ele>
        <time>2020-07-19T13:10:37.000Z</time>
      </trkpt>
      <trkpt lat="44.29424" lon="1.2007">
        <ele>174</ele>
        <time>2020-07-19T13:10:41.000Z</time>
      </trkpt>
      <trkpt lat="44.29416" lon="1.20053">
        <ele>174</ele>
        <time>2020-07-19T13:10:46.000Z</time>
      </trkpt>
      <trkpt lat="44.29413" lon="1.20039">
        <ele>175</ele>
        <time>2020-07-19T13:10:50.000Z</time>
      </trkpt>
      <trkpt lat="44.29411" lon="1.20026">
        <ele>174</ele>
        <time>2020-07-19T13:10:54.000Z</time>
      </trkpt>
      <trkpt lat="44.29405" lon="1.20005">
        <ele>174</ele>
        <time>2020-07-19T13:10:59.000Z</time>
      </trkpt>
      <trkpt lat="44.29396" lon="1.19977">
        <ele>173</ele>
        <time>2020-07-19T13:11:03.000Z</time>
      </trkpt>
      <trkpt lat="44.29382" lon="1.19941">
        <ele>174</ele>
        <time>2020-07-19T13:11:08.000Z</time>
      </trkpt>
      <trkpt lat="44.29371" lon="1.19913">
        <ele>175</ele>
        <time>2020-07-19T13:11:12.000Z</time>
      </trkpt>
      <trkpt lat="44.29367" lon="1.19891">
        <ele>176</ele>
        <time>2020-07-19T13:11:16.000Z</time>
      </trkpt>
      <trkpt lat="44.29366" lon="1.1988">
        <ele>177</ele>
        <time>2020-07-19T13:11:20.000Z</time>
      </trkpt>
      <trkpt lat="44.29365" lon="1.19867">
        <ele>178</ele>
        <time>2020-07-19T13:11:25.000Z</time>
      </trkpt>
      <trkpt lat="44.29366" lon="1.19855">
        <ele>179</ele>
        <time>2020-07-19T13:11:30.000Z</time>
      </trkpt>
      <trkpt lat="44.29365" lon="1.19845">
        <ele>180</ele>
        <time>2020-07-19T13:11:35.000Z</time>
      </trkpt>
      <trkpt lat="44.29365" lon="1.19834">
        <ele>180</ele>
        <time>2020-07-19T13:11:39.000Z</time>
      </trkpt>
      <trkpt lat="44.29364" lon="1.19822">
        <ele>181</ele>
        <time>2020-07-19T13:11:44.000Z</time>
      </trkpt>
      <trkpt lat="44.29358" lon="1.19811">
        <ele>181</ele>
        <time>2020-07-19T13:11:49.000Z</time>
      </trkpt>
      <trkpt lat="44.29353" lon="1.19802">
        <ele>183</ele>
        <time>2020-07-19T13:11:54.000Z</time>
      </trkpt>
      <trkpt lat="44.29348" lon="1.19794">
        <ele>184</ele>
        <time>2020-07-19T13:12:00.000Z</time>
      </trkpt>
      <trkpt lat="44.29343" lon="1.19784">
        <ele>184</ele>
        <time>2020-07-19T13:12:07.000Z</time>
      </trkpt>
      <trkpt lat="44.29337" lon="1.19775">
        <ele>185</ele>
        <time>2020-07-19T13:12:16.000Z</time>
      </trkpt>
      <trkpt lat="44.29332" lon="1.19767">
        <ele>186</ele>
        <time>2020-07-19T13:12:21.000Z</time>
      </trkpt>
      <trkpt lat="44.29325" lon="1.19761">
        <ele>187</ele>
        <time>2020-07-19T13:12:27.000Z</time>
      </trkpt>
      <trkpt lat="44.29318" lon="1.19755">
        <ele>189</ele>
        <time>2020-07-19T13:12:34.000Z</time>
      </trkpt>
      <trkpt lat="44.2931" lon="1.19751">
        <ele>190</ele>
        <time>2020-07-19T13:12:39.000Z</time>
      </trkpt>
      <trkpt lat="44.29301" lon="1.19747">
        <ele>190</ele>
        <time>2020-07-19T13:12:44.000Z</time>
      </trkpt>
      <trkpt lat="44.29294" lon="1.19744">
        <ele>191</ele>
        <time>2020-07-19T13:12:51.000Z</time>
      </trkpt>
      <trkpt lat="44.29286" lon="1.19741">
        <ele>192</ele>
        <time>2020-07-19T13:12:57.000Z</time>
      </trkpt>
      <trkpt lat="44.29279" lon="1.19739">
        <ele>193</ele>
        <time>2020-07-19T13:13:03.000Z</time>
      </trkpt>
      <trkpt lat="44.29272" lon="1.19735">
        <ele>194</ele>
        <time>2020-07-19T13:13:08.000Z</time>
      </trkpt>
      <trkpt lat="44.29263" lon="1.19732">
        <ele>194</ele>
        <time>2020-07-19T13:13:16.000Z</time>
      </trkpt>
      <trkpt lat="44.29256" lon="1.19726">
        <ele>194</ele>
        <time>2020-07-19T13:13:21.000Z</time>
      </trkpt>
      <trkpt lat="44.29249" lon="1.19718">
        <ele>194</ele>
        <time>2020-07-19T13:13:28.000Z</time>
      </trkpt>
      <trkpt lat="44.29242" lon="1.19712">
        <ele>193</ele>
        <time>2020-07-19T13:13:35.000Z</time>
      </trkpt>
      <trkpt lat="44.29234" lon="1.19707">
        <ele>194</ele>
        <time>2020-07-19T13:13:41.000Z</time>
      </trkpt>
      <trkpt lat="44.29226" lon="1.19702">
        <ele>195</ele>
        <time>2020-07-19T13:13:46.000Z</time>
      </trkpt>
      <trkpt lat="44.29219" lon="1.19699">
        <ele>195</ele>
        <time>2020-07-19T13:13:50.000Z</time>
      </trkpt>
      <trkpt lat="44.29211" lon="1.19696">
        <ele>197</ele>
        <time>2020-07-19T13:13:55.000Z</time>
      </trkpt>
      <trkpt lat="44.29204" lon="1.19692">
        <ele>197</ele>
        <time>2020-07-19T13:14:00.000Z</time>
      </trkpt>
      <trkpt lat="44.29196" lon="1.1969">
        <ele>199</ele>
        <time>2020-07-19T13:14:06.000Z</time>
      </trkpt>
      <trkpt lat="44.29188" lon="1.1969">
        <ele>199</ele>
        <time>2020-07-19T13:14:11.000Z</time>
      </trkpt>
      <trkpt lat="44.2918" lon="1.19688">
        <ele>201</ele>
        <time>2020-07-19T13:14:17.000Z</time>
      </trkpt>
      <trkpt lat="44.29172" lon="1.19682">
        <ele>205</ele>
        <time>2020-07-19T13:14:53.000Z</time>
      </trkpt>
      <trkpt lat="44.29168" lon="1.19672">
        <ele>206</ele>
        <time>2020-07-19T13:15:12.000Z</time>
      </trkpt>
      <trkpt lat="44.29157" lon="1.19653">
        <ele>207</ele>
        <time>2020-07-19T13:15:17.000Z</time>
      </trkpt>
      <trkpt lat="44.2915" lon="1.19629">
        <ele>207</ele>
        <time>2020-07-19T13:15:21.000Z</time>
      </trkpt>
      <trkpt lat="44.29144" lon="1.19601">
        <ele>207</ele>
        <time>2020-07-19T13:15:25.000Z</time>
      </trkpt>
      <trkpt lat="44.2914" lon="1.19568">
        <ele>207</ele>
        <time>2020-07-19T13:15:29.000Z</time>
      </trkpt>
      <trkpt lat="44.2914" lon="1.19525">
        <ele>205</ele>
        <time>2020-07-19T13:15:33.000Z</time>
      </trkpt>
      <trkpt lat="44.2915" lon="1.19483">
        <ele>204</ele>
        <time>2020-07-19T13:15:37.000Z</time>
      </trkpt>
      <trkpt lat="44.29162" lon="1.19439">
        <ele>202</ele>
        <time>2020-07-19T13:15:41.000Z</time>
      </trkpt>
      <trkpt lat="44.29172" lon="1.19372">
        <ele>198</ele>
        <time>2020-07-19T13:15:46.000Z</time>
      </trkpt>
      <trkpt lat="44.29178" lon="1.19307">
        <ele>190</ele>
        <time>2020-07-19T13:15:50.000Z</time>
      </trkpt>
      <trkpt lat="44.29163" lon="1.19241">
        <ele>185</ele>
        <time>2020-07-19T13:15:54.000Z</time>
      </trkpt>
      <trkpt lat="44.29153" lon="1.19201">
        <ele>182</ele>
        <time>2020-07-19T13:15:58.000Z</time>
      </trkpt>
      <trkpt lat="44.2914" lon="1.19197">
        <ele>181</ele>
        <time>2020-07-19T13:16:03.000Z</time>
      </trkpt>
      <trkpt lat="44.29124" lon="1.19204">
        <ele>179</ele>
        <time>2020-07-19T13:16:07.000Z</time>
      </trkpt>
      <trkpt lat="44.29103" lon="1.19206">
        <ele>177</ele>
        <time>2020-07-19T13:16:11.000Z</time>
      </trkpt>
      <trkpt lat="44.29078" lon="1.19205">
        <ele>176</ele>
        <time>2020-07-19T13:16:15.000Z</time>
      </trkpt>
      <trkpt lat="44.29046" lon="1.19201">
        <ele>174</ele>
        <time>2020-07-19T13:16:20.000Z</time>
      </trkpt>
      <trkpt lat="44.29027" lon="1.19195">
        <ele>173</ele>
        <time>2020-07-19T13:16:25.000Z</time>
      </trkpt>
      <trkpt lat="44.29027" lon="1.19184">
        <ele>173</ele>
        <time>2020-07-19T13:16:31.000Z</time>
      </trkpt>
      <trkpt lat="44.29026" lon="1.19171">
        <ele>174</ele>
        <time>2020-07-19T13:16:38.000Z</time>
      </trkpt>
      <trkpt lat="44.2902" lon="1.19164">
        <ele>174</ele>
        <time>2020-07-19T13:16:44.000Z</time>
      </trkpt>
      <trkpt lat="44.29014" lon="1.19156">
        <ele>174</ele>
        <time>2020-07-19T13:16:49.000Z</time>
      </trkpt>
      <trkpt lat="44.29008" lon="1.19148">
        <ele>175</ele>
        <time>2020-07-19T13:16:54.000Z</time>
      </trkpt>
      <trkpt lat="44.29" lon="1.19139">
        <ele>175</ele>
        <time>2020-07-19T13:16:59.000Z</time>
      </trkpt>
      <trkpt lat="44.28994" lon="1.19132">
        <ele>176</ele>
        <time>2020-07-19T13:17:04.000Z</time>
      </trkpt>
      <trkpt lat="44.28987" lon="1.19125">
        <ele>176</ele>
        <time>2020-07-19T13:17:09.000Z</time>
      </trkpt>
      <trkpt lat="44.2898" lon="1.19117">
        <ele>176</ele>
        <time>2020-07-19T13:17:14.000Z</time>
      </trkpt>
      <trkpt lat="44.28974" lon="1.1911">
        <ele>178</ele>
        <time>2020-07-19T13:17:20.000Z</time>
      </trkpt>
      <trkpt lat="44.28971" lon="1.19099">
        <ele>178</ele>
        <time>2020-07-19T13:17:26.000Z</time>
      </trkpt>
      <trkpt lat="44.28965" lon="1.19091">
        <ele>179</ele>
        <time>2020-07-19T13:17:35.000Z</time>
      </trkpt>
      <trkpt lat="44.28959" lon="1.19083">
        <ele>179</ele>
        <time>2020-07-19T13:17:43.000Z</time>
      </trkpt>
      <trkpt lat="44.28956" lon="1.19072">
        <ele>180</ele>
        <time>2020-07-19T13:17:50.000Z</time>
      </trkpt>
      <trkpt lat="44.28952" lon="1.19061">
        <ele>182</ele>
        <time>2020-07-19T13:17:57.000Z</time>
      </trkpt>
      <trkpt lat="44.2895" lon="1.1905">
        <ele>185</ele>
        <time>2020-07-19T13:18:13.000Z</time>
      </trkpt>
      <trkpt lat="44.28944" lon="1.19041">
        <ele>187</ele>
        <time>2020-07-19T13:18:24.000Z</time>
      </trkpt>
      <trkpt lat="44.28943" lon="1.19031">
        <ele>187</ele>
        <time>2020-07-19T13:18:34.000Z</time>
      </trkpt>
      <trkpt lat="44.28941" lon="1.19021">
        <ele>188</ele>
        <time>2020-07-19T13:20:00.000Z</time>
      </trkpt>
      <trkpt lat="44.28942" lon="1.1901">
        <ele>191</ele>
        <time>2020-07-19T13:20:12.000Z</time>
      </trkpt>
      <trkpt lat="44.2894" lon="1.18997">
        <ele>195</ele>
        <time>2020-07-19T13:20:29.000Z</time>
      </trkpt>
      <trkpt lat="44.28941" lon="1.18985">
        <ele>200</ele>
        <time>2020-07-19T13:21:17.000Z</time>
      </trkpt>
      <trkpt lat="44.2894" lon="1.18973">
        <ele>202</ele>
        <time>2020-07-19T13:21:48.000Z</time>
      </trkpt>
      <trkpt lat="44.28936" lon="1.18963">
        <ele>204</ele>
        <time>2020-07-19T13:22:31.000Z</time>
      </trkpt>
      <trkpt lat="44.28931" lon="1.18952">
        <ele>207</ele>
        <time>2020-07-19T13:22:58.000Z</time>
      </trkpt>
      <trkpt lat="44.28927" lon="1.18942">
        <ele>209</ele>
        <time>2020-07-19T13:23:13.000Z</time>
      </trkpt>
      <trkpt lat="44.28924" lon="1.18931">
        <ele>213</ele>
        <time>2020-07-19T13:23:54.000Z</time>
      </trkpt>
      <trkpt lat="44.28922" lon="1.18919">
        <ele>218</ele>
        <time>2020-07-19T13:24:08.000Z</time>
      </trkpt>
      <trkpt lat="44.28917" lon="1.18909">
        <ele>217</ele>
        <time>2020-07-19T13:24:41.000Z</time>
      </trkpt>
      <trkpt lat="44.2891" lon="1.18903">
        <ele>218</ele>
        <time>2020-07-19T13:24:53.000Z</time>
      </trkpt>
      <trkpt lat="44.28904" lon="1.18894">
        <ele>220</ele>
        <time>2020-07-19T13:25:08.000Z</time>
      </trkpt>
      <trkpt lat="44.28899" lon="1.18885">
        <ele>222</ele>
        <time>2020-07-19T13:25:17.000Z</time>
      </trkpt>
      <trkpt lat="44.28894" lon="1.1888">
        <ele>223</ele>
        <time>2020-07-19T13:25:25.000Z</time>
      </trkpt>
      <trkpt lat="44.2889" lon="1.18869">
        <ele>225</ele>
        <time>2020-07-19T13:25:39.000Z</time>
      </trkpt>
      <trkpt lat="44.28883" lon="1.18862">
        <ele>226</ele>
        <time>2020-07-19T13:25:48.000Z</time>
      </trkpt>
      <trkpt lat="44.28881" lon="1.18852">
        <ele>228</ele>
        <time>2020-07-19T13:25:57.000Z</time>
      </trkpt>
      <trkpt lat="44.28878" lon="1.18842">
        <ele>230</ele>
        <time>2020-07-19T13:26:04.000Z</time>
      </trkpt>
      <trkpt lat="44.28871" lon="1.18836">
        <ele>233</ele>
        <time>2020-07-19T13:26:17.000Z</time>
      </trkpt>
      <trkpt lat="44.28865" lon="1.18828">
        <ele>233</ele>
        <time>2020-07-19T13:26:22.000Z</time>
      </trkpt>
      <trkpt lat="44.28861" lon="1.18819">
        <ele>233</ele>
        <time>2020-07-19T13:26:29.000Z</time>
      </trkpt>
      <trkpt lat="44.28857" lon="1.18809">
        <ele>236</ele>
        <time>2020-07-19T13:26:36.000Z</time>
      </trkpt>
      <trkpt lat="44.28852" lon="1.18799">
        <ele>237</ele>
        <time>2020-07-19T13:26:42.000Z</time>
      </trkpt>
      <trkpt lat="44.28848" lon="1.1879">
        <ele>237</ele>
        <time>2020-07-19T13:26:47.000Z</time>
      </trkpt>
      <trkpt lat="44.28842" lon="1.18782">
        <ele>237</ele>
        <time>2020-07-19T13:26:53.000Z</time>
      </trkpt>
      <trkpt lat="44.28837" lon="1.18773">
        <ele>238</ele>
        <time>2020-07-19T13:27:00.000Z</time>
      </trkpt>
      <trkpt lat="44.28832" lon="1.18764">
        <ele>239</ele>
        <time>2020-07-19T13:27:06.000Z</time>
      </trkpt>
      <trkpt lat="44.28826" lon="1.18756">
        <ele>240</ele>
        <time>2020-07-19T13:27:12.000Z</time>
      </trkpt>
      <trkpt lat="44.2882" lon="1.1875">
        <ele>242</ele>
        <time>2020-07-19T13:27:18.000Z</time>
      </trkpt>
      <trkpt lat="44.28812" lon="1.18745">
        <ele>243</ele>
        <time>2020-07-19T13:27:47.000Z</time>
      </trkpt>
      <trkpt lat="44.28811" lon="1.18732">
        <ele>242</ele>
        <time>2020-07-19T13:45:03.000Z</time>
      </trkpt>
      <trkpt lat="44.28808" lon="1.18721">
        <ele>242</ele>
        <time>2020-07-19T13:45:09.000Z</time>
      </trkpt>
      <trkpt lat="44.28806" lon="1.18711">
        <ele>242</ele>
        <time>2020-07-19T13:45:14.000Z</time>
      </trkpt>
      <trkpt lat="44.28801" lon="1.18698">
        <ele>242</ele>
        <time>2020-07-19T13:45:19.000Z</time>
      </trkpt>
      <trkpt lat="44.28791" lon="1.18682">
        <ele>243</ele>
        <time>2020-07-19T13:45:23.000Z</time>
      </trkpt>
      <trkpt lat="44.28784" lon="1.18669">
        <ele>242</ele>
        <time>2020-07-19T13:45:27.000Z</time>
      </trkpt>
      <trkpt lat="44.2878" lon="1.1866">
        <ele>241</ele>
        <time>2020-07-19T13:45:44.000Z</time>
      </trkpt>
      <trkpt lat="44.28773" lon="1.18642">
        <ele>241</ele>
        <time>2020-07-19T13:45:49.000Z</time>
      </trkpt>
      <trkpt lat="44.28765" lon="1.18629">
        <ele>240</ele>
        <time>2020-07-19T13:45:53.000Z</time>
      </trkpt>
      <trkpt lat="44.28762" lon="1.18614">
        <ele>240</ele>
        <time>2020-07-19T13:45:58.000Z</time>
      </trkpt>
      <trkpt lat="44.28758" lon="1.18599">
        <ele>239</ele>
        <time>2020-07-19T13:46:02.000Z</time>
      </trkpt>
      <trkpt lat="44.28752" lon="1.18584">
        <ele>239</ele>
        <time>2020-07-19T13:46:06.000Z</time>
      </trkpt>
      <trkpt lat="44.28747" lon="1.18573">
        <ele>239</ele>
        <time>2020-07-19T13:46:10.000Z</time>
      </trkpt>
      <trkpt lat="44.28743" lon="1.18561">
        <ele>238</ele>
        <time>2020-07-19T13:46:14.000Z</time>
      </trkpt>
      <trkpt lat="44.28738" lon="1.1855">
        <ele>238</ele>
        <time>2020-07-19T13:46:18.000Z</time>
      </trkpt>
      <trkpt lat="44.28733" lon="1.18535">
        <ele>237</ele>
        <time>2020-07-19T13:46:22.000Z</time>
      </trkpt>
      <trkpt lat="44.28725" lon="1.1852">
        <ele>237</ele>
        <time>2020-07-19T13:46:27.000Z</time>
      </trkpt>
      <trkpt lat="44.2872" lon="1.18509">
        <ele>237</ele>
        <time>2020-07-19T13:46:31.000Z</time>
      </trkpt>
      <trkpt lat="44.28712" lon="1.18494">
        <ele>236</ele>
        <time>2020-07-19T13:46:36.000Z</time>
      </trkpt>
      <trkpt lat="44.28703" lon="1.18484">
        <ele>234</ele>
        <time>2020-07-19T13:46:40.000Z</time>
      </trkpt>
      <trkpt lat="44.28697" lon="1.18473">
        <ele>233</ele>
        <time>2020-07-19T13:46:44.000Z</time>
      </trkpt>
      <trkpt lat="44.28687" lon="1.18457">
        <ele>231</ele>
        <time>2020-07-19T13:46:49.000Z</time>
      </trkpt>
      <trkpt lat="44.2868" lon="1.18443">
        <ele>232</ele>
        <time>2020-07-19T13:46:53.000Z</time>
      </trkpt>
      <trkpt lat="44.28672" lon="1.18428">
        <ele>231</ele>
        <time>2020-07-19T13:46:57.000Z</time>
      </trkpt>
      <trkpt lat="44.2866" lon="1.18412">
        <ele>230</ele>
        <time>2020-07-19T13:47:02.000Z</time>
      </trkpt>
      <trkpt lat="44.28649" lon="1.18402">
        <ele>229</ele>
        <time>2020-07-19T13:47:06.000Z</time>
      </trkpt>
      <trkpt lat="44.28637" lon="1.1839">
        <ele>230</ele>
        <time>2020-07-19T13:47:10.000Z</time>
      </trkpt>
      <trkpt lat="44.2862" lon="1.18374">
        <ele>229</ele>
        <time>2020-07-19T13:47:15.000Z</time>
      </trkpt>
      <trkpt lat="44.28604" lon="1.1836">
        <ele>228</ele>
        <time>2020-07-19T13:47:20.000Z</time>
      </trkpt>
      <trkpt lat="44.28592" lon="1.18349">
        <ele>228</ele>
        <time>2020-07-19T13:47:24.000Z</time>
      </trkpt>
      <trkpt lat="44.28576" lon="1.18335">
        <ele>227</ele>
        <time>2020-07-19T13:47:29.000Z</time>
      </trkpt>
      <trkpt lat="44.28566" lon="1.18322">
        <ele>227</ele>
        <time>2020-07-19T13:47:33.000Z</time>
      </trkpt>
      <trkpt lat="44.28554" lon="1.18309">
        <ele>227</ele>
        <time>2020-07-19T13:47:37.000Z</time>
      </trkpt>
      <trkpt lat="44.28546" lon="1.18296">
        <ele>228</ele>
        <time>2020-07-19T13:47:41.000Z</time>
      </trkpt>
      <trkpt lat="44.28536" lon="1.18281">
        <ele>229</ele>
        <time>2020-07-19T13:47:46.000Z</time>
      </trkpt>
      <trkpt lat="44.28529" lon="1.18267">
        <ele>228</ele>
        <time>2020-07-19T13:47:50.000Z</time>
      </trkpt>
      <trkpt lat="44.28509" lon="1.18247">
        <ele>226</ele>
        <time>2020-07-19T13:47:54.000Z</time>
      </trkpt>
      <trkpt lat="44.28484" lon="1.18224">
        <ele>224</ele>
        <time>2020-07-19T13:47:58.000Z</time>
      </trkpt>
      <trkpt lat="44.28463" lon="1.18203">
        <ele>225</ele>
        <time>2020-07-19T13:48:02.000Z</time>
      </trkpt>
      <trkpt lat="44.28448" lon="1.18179">
        <ele>226</ele>
        <time>2020-07-19T13:48:06.000Z</time>
      </trkpt>
      <trkpt lat="44.28434" lon="1.18151">
        <ele>231</ele>
        <time>2020-07-19T13:48:11.000Z</time>
      </trkpt>
      <trkpt lat="44.28423" lon="1.18131">
        <ele>231</ele>
        <time>2020-07-19T13:48:16.000Z</time>
      </trkpt>
      <trkpt lat="44.28415" lon="1.18116">
        <ele>232</ele>
        <time>2020-07-19T13:48:20.000Z</time>
      </trkpt>
      <trkpt lat="44.28405" lon="1.18099">
        <ele>232</ele>
        <time>2020-07-19T13:48:25.000Z</time>
      </trkpt>
      <trkpt lat="44.28399" lon="1.18084">
        <ele>233</ele>
        <time>2020-07-19T13:48:29.000Z</time>
      </trkpt>
      <trkpt lat="44.28393" lon="1.1807">
        <ele>233</ele>
        <time>2020-07-19T13:48:33.000Z</time>
      </trkpt>
      <trkpt lat="44.28385" lon="1.18056">
        <ele>233</ele>
        <time>2020-07-19T13:48:37.000Z</time>
      </trkpt>
      <trkpt lat="44.28375" lon="1.18036">
        <ele>233</ele>
        <time>2020-07-19T13:48:42.000Z</time>
      </trkpt>
      <trkpt lat="44.28368" lon="1.18022">
        <ele>233</ele>
        <time>2020-07-19T13:48:46.000Z</time>
      </trkpt>
      <trkpt lat="44.28359" lon="1.18006">
        <ele>233</ele>
        <time>2020-07-19T13:48:51.000Z</time>
      </trkpt>
      <trkpt lat="44.2835" lon="1.17997">
        <ele>233</ele>
        <time>2020-07-19T13:48:55.000Z</time>
      </trkpt>
      <trkpt lat="44.28337" lon="1.17983">
        <ele>234</ele>
        <time>2020-07-19T13:49:00.000Z</time>
      </trkpt>
      <trkpt lat="44.28329" lon="1.17967">
        <ele>234</ele>
        <time>2020-07-19T13:49:04.000Z</time>
      </trkpt>
      <trkpt lat="44.2832" lon="1.1795">
        <ele>235</ele>
        <time>2020-07-19T13:49:08.000Z</time>
      </trkpt>
      <trkpt lat="44.28308" lon="1.17928">
        <ele>236</ele>
        <time>2020-07-19T13:49:13.000Z</time>
      </trkpt>
      <trkpt lat="44.28298" lon="1.1791">
        <ele>237</ele>
        <time>2020-07-19T13:49:18.000Z</time>
      </trkpt>
      <trkpt lat="44.28293" lon="1.17897">
        <ele>237</ele>
        <time>2020-07-19T13:49:22.000Z</time>
      </trkpt>
      <trkpt lat="44.28289" lon="1.17885">
        <ele>237</ele>
        <time>2020-07-19T13:49:26.000Z</time>
      </trkpt>
      <trkpt lat="44.28285" lon="1.17871">
        <ele>237</ele>
        <time>2020-07-19T13:49:30.000Z</time>
      </trkpt>
      <trkpt lat="44.2828" lon="1.17855">
        <ele>238</ele>
        <time>2020-07-19T13:49:35.000Z</time>
      </trkpt>
      <trkpt lat="44.28276" lon="1.17842">
        <ele>238</ele>
        <time>2020-07-19T13:49:39.000Z</time>
      </trkpt>
      <trkpt lat="44.28271" lon="1.17826">
        <ele>238</ele>
        <time>2020-07-19T13:49:44.000Z</time>
      </trkpt>
      <trkpt lat="44.28265" lon="1.17811">
        <ele>238</ele>
        <time>2020-07-19T13:49:48.000Z</time>
      </trkpt>
      <trkpt lat="44.28256" lon="1.17796">
        <ele>237</ele>
        <time>2020-07-19T13:49:52.000Z</time>
      </trkpt>
      <trkpt lat="44.2824" lon="1.17787">
        <ele>236</ele>
        <time>2020-07-19T13:49:56.000Z</time>
      </trkpt>
      <trkpt lat="44.28216" lon="1.1778">
        <ele>235</ele>
        <time>2020-07-19T13:50:01.000Z</time>
      </trkpt>
      <trkpt lat="44.28198" lon="1.17777">
        <ele>234</ele>
        <time>2020-07-19T13:50:05.000Z</time>
      </trkpt>
      <trkpt lat="44.28178" lon="1.1777">
        <ele>234</ele>
        <time>2020-07-19T13:50:10.000Z</time>
      </trkpt>
      <trkpt lat="44.28173" lon="1.17762">
        <ele>233</ele>
        <time>2020-07-19T13:50:15.000Z</time>
      </trkpt>
      <trkpt lat="44.28168" lon="1.17743">
        <ele>233</ele>
        <time>2020-07-19T13:50:19.000Z</time>
      </trkpt>
      <trkpt lat="44.28164" lon="1.17712">
        <ele>233</ele>
        <time>2020-07-19T13:50:24.000Z</time>
      </trkpt>
      <trkpt lat="44.2816" lon="1.17686">
        <ele>232</ele>
        <time>2020-07-19T13:50:28.000Z</time>
      </trkpt>
      <trkpt lat="44.28156" lon="1.17662">
        <ele>232</ele>
        <time>2020-07-19T13:50:32.000Z</time>
      </trkpt>
      <trkpt lat="44.28151" lon="1.17642">
        <ele>233</ele>
        <time>2020-07-19T13:50:36.000Z</time>
      </trkpt>
      <trkpt lat="44.28149" lon="1.17629">
        <ele>233</ele>
        <time>2020-07-19T13:50:40.000Z</time>
      </trkpt>
      <trkpt lat="44.2815" lon="1.17614">
        <ele>233</ele>
        <time>2020-07-19T13:50:45.000Z</time>
      </trkpt>
      <trkpt lat="44.28153" lon="1.176">
        <ele>234</ele>
        <time>2020-07-19T13:50:49.000Z</time>
      </trkpt>
      <trkpt lat="44.28156" lon="1.17584">
        <ele>235</ele>
        <time>2020-07-19T13:50:53.000Z</time>
      </trkpt>
      <trkpt lat="44.28158" lon="1.17563">
        <ele>235</ele>
        <time>2020-07-19T13:50:58.000Z</time>
      </trkpt>
      <trkpt lat="44.28161" lon="1.17542">
        <ele>235</ele>
        <time>2020-07-19T13:51:03.000Z</time>
      </trkpt>
      <trkpt lat="44.28164" lon="1.17524">
        <ele>235</ele>
        <time>2020-07-19T13:51:07.000Z</time>
      </trkpt>
      <trkpt lat="44.28166" lon="1.17504">
        <ele>235</ele>
        <time>2020-07-19T13:51:11.000Z</time>
      </trkpt>
      <trkpt lat="44.28164" lon="1.17482">
        <ele>236</ele>
        <time>2020-07-19T13:51:16.000Z</time>
      </trkpt>
      <trkpt lat="44.28163" lon="1.17458">
        <ele>236</ele>
        <time>2020-07-19T13:51:21.000Z</time>
      </trkpt>
      <trkpt lat="44.28164" lon="1.17433">
        <ele>234</ele>
        <time>2020-07-19T13:51:25.000Z</time>
      </trkpt>
      <trkpt lat="44.28165" lon="1.17401">
        <ele>235</ele>
        <time>2020-07-19T13:51:30.000Z</time>
      </trkpt>
      <trkpt lat="44.28165" lon="1.17375">
        <ele>236</ele>
        <time>2020-07-19T13:51:34.000Z</time>
      </trkpt>
      <trkpt lat="44.28159" lon="1.17348">
        <ele>235</ele>
        <time>2020-07-19T13:51:39.000Z</time>
      </trkpt>
      <trkpt lat="44.2815" lon="1.17324">
        <ele>234</ele>
        <time>2020-07-19T13:51:44.000Z</time>
      </trkpt>
      <trkpt lat="44.2814" lon="1.17304">
        <ele>234</ele>
        <time>2020-07-19T13:51:49.000Z</time>
      </trkpt>
      <trkpt lat="44.28132" lon="1.17284">
        <ele>233</ele>
        <time>2020-07-19T13:51:53.000Z</time>
      </trkpt>
      <trkpt lat="44.28122" lon="1.17251">
        <ele>236</ele>
        <time>2020-07-19T13:51:58.000Z</time>
      </trkpt>
      <trkpt lat="44.28116" lon="1.17227">
        <ele>235</ele>
        <time>2020-07-19T13:52:02.000Z</time>
      </trkpt>
      <trkpt lat="44.28109" lon="1.17197">
        <ele>234</ele>
        <time>2020-07-19T13:52:07.000Z</time>
      </trkpt>
      <trkpt lat="44.28102" lon="1.17172">
        <ele>233</ele>
        <time>2020-07-19T13:52:11.000Z</time>
      </trkpt>
      <trkpt lat="44.28093" lon="1.17141">
        <ele>232</ele>
        <time>2020-07-19T13:52:16.000Z</time>
      </trkpt>
      <trkpt lat="44.28083" lon="1.1711">
        <ele>231</ele>
        <time>2020-07-19T13:52:21.000Z</time>
      </trkpt>
      <trkpt lat="44.28078" lon="1.17076">
        <ele>231</ele>
        <time>2020-07-19T13:52:26.000Z</time>
      </trkpt>
      <trkpt lat="44.28073" lon="1.17055">
        <ele>230</ele>
        <time>2020-07-19T13:52:30.000Z</time>
      </trkpt>
      <trkpt lat="44.28075" lon="1.17034">
        <ele>230</ele>
        <time>2020-07-19T13:52:35.000Z</time>
      </trkpt>
      <trkpt lat="44.28073" lon="1.17018">
        <ele>229</ele>
        <time>2020-07-19T13:52:39.000Z</time>
      </trkpt>
      <trkpt lat="44.28072" lon="1.17001">
        <ele>229</ele>
        <time>2020-07-19T13:52:43.000Z</time>
      </trkpt>
      <trkpt lat="44.28071" lon="1.16981">
        <ele>229</ele>
        <time>2020-07-19T13:52:48.000Z</time>
      </trkpt>
      <trkpt lat="44.28066" lon="1.16955">
        <ele>228</ele>
        <time>2020-07-19T13:52:53.000Z</time>
      </trkpt>
      <trkpt lat="44.28061" lon="1.16933">
        <ele>227</ele>
        <time>2020-07-19T13:52:57.000Z</time>
      </trkpt>
      <trkpt lat="44.28056" lon="1.16912">
        <ele>228</ele>
        <time>2020-07-19T13:53:01.000Z</time>
      </trkpt>
      <trkpt lat="44.28053" lon="1.16894">
        <ele>229</ele>
        <time>2020-07-19T13:53:06.000Z</time>
      </trkpt>
      <trkpt lat="44.2805" lon="1.16884">
        <ele>228</ele>
        <time>2020-07-19T13:53:11.000Z</time>
      </trkpt>
      <trkpt lat="44.28049" lon="1.16873">
        <ele>228</ele>
        <time>2020-07-19T13:53:16.000Z</time>
      </trkpt>
      <trkpt lat="44.28048" lon="1.16861">
        <ele>229</ele>
        <time>2020-07-19T13:53:22.000Z</time>
      </trkpt>
      <trkpt lat="44.28046" lon="1.16846">
        <ele>229</ele>
        <time>2020-07-19T13:53:27.000Z</time>
      </trkpt>
      <trkpt lat="44.28046" lon="1.16836">
        <ele>230</ele>
        <time>2020-07-19T13:53:31.000Z</time>
      </trkpt>
      <trkpt lat="44.28046" lon="1.16824">
        <ele>231</ele>
        <time>2020-07-19T13:53:36.000Z</time>
      </trkpt>
      <trkpt lat="44.28045" lon="1.1681">
        <ele>230</ele>
        <time>2020-07-19T13:53:41.000Z</time>
      </trkpt>
      <trkpt lat="44.28043" lon="1.16798">
        <ele>230</ele>
        <time>2020-07-19T13:53:45.000Z</time>
      </trkpt>
      <trkpt lat="44.28042" lon="1.16786">
        <ele>230</ele>
        <time>2020-07-19T13:53:50.000Z</time>
      </trkpt>
      <trkpt lat="44.28042" lon="1.16774">
        <ele>230</ele>
        <time>2020-07-19T13:53:54.000Z</time>
      </trkpt>
      <trkpt lat="44.28041" lon="1.16765">
        <ele>229</ele>
        <time>2020-07-19T13:53:57.000Z</time>
      </trkpt>
      <trkpt lat="44.28043" lon="1.1675">
        <ele>228</ele>
        <time>2020-07-19T13:54:02.000Z</time>
      </trkpt>
      <trkpt lat="44.28043" lon="1.16733">
        <ele>228</ele>
        <time>2020-07-19T13:54:07.000Z</time>
      </trkpt>
      <trkpt lat="44.28044" lon="1.16715">
        <ele>227</ele>
        <time>2020-07-19T13:54:12.000Z</time>
      </trkpt>
      <trkpt lat="44.28045" lon="1.16699">
        <ele>227</ele>
        <time>2020-07-19T13:54:17.000Z</time>
      </trkpt>
      <trkpt lat="44.28045" lon="1.1668">
        <ele>228</ele>
        <time>2020-07-19T13:54:21.000Z</time>
      </trkpt>
      <trkpt lat="44.28045" lon="1.16666">
        <ele>227</ele>
        <time>2020-07-19T13:54:25.000Z</time>
      </trkpt>
      <trkpt lat="44.28048" lon="1.16649">
        <ele>226</ele>
        <time>2020-07-19T13:54:30.000Z</time>
      </trkpt>
      <trkpt lat="44.28049" lon="1.16635">
        <ele>227</ele>
        <time>2020-07-19T13:54:34.000Z</time>
      </trkpt>
      <trkpt lat="44.2805" lon="1.16618">
        <ele>227</ele>
        <time>2020-07-19T13:54:38.000Z</time>
      </trkpt>
      <trkpt lat="44.28048" lon="1.16602">
        <ele>227</ele>
        <time>2020-07-19T13:54:42.000Z</time>
      </trkpt>
      <trkpt lat="44.28049" lon="1.16585">
        <ele>229</ele>
        <time>2020-07-19T13:54:47.000Z</time>
      </trkpt>
      <trkpt lat="44.28049" lon="1.16574">
        <ele>234</ele>
        <time>2020-07-19T13:56:48.000Z</time>
      </trkpt>
      <trkpt lat="44.28049" lon="1.16561">
        <ele>235</ele>
        <time>2020-07-19T13:56:52.000Z</time>
      </trkpt>
      <trkpt lat="44.28052" lon="1.16547">
        <ele>234</ele>
        <time>2020-07-19T13:56:56.000Z</time>
      </trkpt>
      <trkpt lat="44.2805" lon="1.16535">
        <ele>234</ele>
        <time>2020-07-19T13:58:42.000Z</time>
      </trkpt>
      <trkpt lat="44.28054" lon="1.16518">
        <ele>233</ele>
        <time>2020-07-19T13:58:46.000Z</time>
      </trkpt>
      <trkpt lat="44.28059" lon="1.16494">
        <ele>231</ele>
        <time>2020-07-19T13:58:51.000Z</time>
      </trkpt>
      <trkpt lat="44.28062" lon="1.16475">
        <ele>231</ele>
        <time>2020-07-19T13:58:55.000Z</time>
      </trkpt>
      <trkpt lat="44.28065" lon="1.1645">
        <ele>231</ele>
        <time>2020-07-19T13:59:00.000Z</time>
      </trkpt>
      <trkpt lat="44.28069" lon="1.16427">
        <ele>231</ele>
        <time>2020-07-19T13:59:04.000Z</time>
      </trkpt>
      <trkpt lat="44.28072" lon="1.16402">
        <ele>229</ele>
        <time>2020-07-19T13:59:08.000Z</time>
      </trkpt>
      <trkpt lat="44.28075" lon="1.1638">
        <ele>231</ele>
        <time>2020-07-19T13:59:13.000Z</time>
      </trkpt>
      <trkpt lat="44.28074" lon="1.16365">
        <ele>231</ele>
        <time>2020-07-19T13:59:17.000Z</time>
      </trkpt>
      <trkpt lat="44.28071" lon="1.1635">
        <ele>230</ele>
        <time>2020-07-19T13:59:21.000Z</time>
      </trkpt>
      <trkpt lat="44.28068" lon="1.16329">
        <ele>231</ele>
        <time>2020-07-19T13:59:26.000Z</time>
      </trkpt>
      <trkpt lat="44.28063" lon="1.16314">
        <ele>231</ele>
        <time>2020-07-19T13:59:30.000Z</time>
      </trkpt>
      <trkpt lat="44.28059" lon="1.163">
        <ele>230</ele>
        <time>2020-07-19T13:59:34.000Z</time>
      </trkpt>
      <trkpt lat="44.28055" lon="1.16287">
        <ele>231</ele>
        <time>2020-07-19T13:59:38.000Z</time>
      </trkpt>
      <trkpt lat="44.28047" lon="1.1627">
        <ele>230</ele>
        <time>2020-07-19T13:59:43.000Z</time>
      </trkpt>
      <trkpt lat="44.28038" lon="1.16255">
        <ele>230</ele>
        <time>2020-07-19T13:59:47.000Z</time>
      </trkpt>
      <trkpt lat="44.28026" lon="1.16239">
        <ele>229</ele>
        <time>2020-07-19T13:59:51.000Z</time>
      </trkpt>
      <trkpt lat="44.28012" lon="1.16216">
        <ele>228</ele>
        <time>2020-07-19T13:59:55.000Z</time>
      </trkpt>
      <trkpt lat="44.28002" lon="1.16199">
        <ele>227</ele>
        <time>2020-07-19T13:59:59.000Z</time>
      </trkpt>
      <trkpt lat="44.27991" lon="1.16188">
        <ele>227</ele>
        <time>2020-07-19T14:00:04.000Z</time>
      </trkpt>
      <trkpt lat="44.27982" lon="1.16177">
        <ele>227</ele>
        <time>2020-07-19T14:00:08.000Z</time>
      </trkpt>
      <trkpt lat="44.27975" lon="1.16168">
        <ele>225</ele>
        <time>2020-07-19T14:00:13.000Z</time>
      </trkpt>
      <trkpt lat="44.2797" lon="1.1616">
        <ele>226</ele>
        <time>2020-07-19T14:00:28.000Z</time>
      </trkpt>
      <trkpt lat="44.27964" lon="1.16152">
        <ele>226</ele>
        <time>2020-07-19T14:00:48.000Z</time>
      </trkpt>
      <trkpt lat="44.27959" lon="1.16143">
        <ele>226</ele>
        <time>2020-07-19T14:00:53.000Z</time>
      </trkpt>
      <trkpt lat="44.27953" lon="1.16135">
        <ele>226</ele>
        <time>2020-07-19T14:00:58.000Z</time>
      </trkpt>
      <trkpt lat="44.27945" lon="1.16123">
        <ele>225</ele>
        <time>2020-07-19T14:01:03.000Z</time>
      </trkpt>
      <trkpt lat="44.27939" lon="1.16111">
        <ele>227</ele>
        <time>2020-07-19T14:01:08.000Z</time>
      </trkpt>
      <trkpt lat="44.27932" lon="1.16099">
        <ele>226</ele>
        <time>2020-07-19T14:01:13.000Z</time>
      </trkpt>
      <trkpt lat="44.27926" lon="1.1609">
        <ele>226</ele>
        <time>2020-07-19T14:01:17.000Z</time>
      </trkpt>
      <trkpt lat="44.27919" lon="1.16083">
        <ele>225</ele>
        <time>2020-07-19T14:01:21.000Z</time>
      </trkpt>
      <trkpt lat="44.27912" lon="1.16076">
        <ele>226</ele>
        <time>2020-07-19T14:01:25.000Z</time>
      </trkpt>
      <trkpt lat="44.27907" lon="1.16069">
        <ele>228</ele>
        <time>2020-07-19T14:01:35.000Z</time>
      </trkpt>
      <trkpt lat="44.27901" lon="1.16062">
        <ele>230</ele>
        <time>2020-07-19T14:01:41.000Z</time>
      </trkpt>
      <trkpt lat="44.27896" lon="1.16054">
        <ele>230</ele>
        <time>2020-07-19T14:01:45.000Z</time>
      </trkpt>
      <trkpt lat="44.27888" lon="1.16045">
        <ele>230</ele>
        <time>2020-07-19T14:01:49.000Z</time>
      </trkpt>
      <trkpt lat="44.2788" lon="1.16037">
        <ele>228</ele>
        <time>2020-07-19T14:01:53.000Z</time>
      </trkpt>
      <trkpt lat="44.27871" lon="1.16026">
        <ele>228</ele>
        <time>2020-07-19T14:01:58.000Z</time>
      </trkpt>
      <trkpt lat="44.27865" lon="1.16017">
        <ele>227</ele>
        <time>2020-07-19T14:02:02.000Z</time>
      </trkpt>
      <trkpt lat="44.27858" lon="1.16009">
        <ele>227</ele>
        <time>2020-07-19T14:02:07.000Z</time>
      </trkpt>
      <trkpt lat="44.27853" lon="1.16002">
        <ele>227</ele>
        <time>2020-07-19T14:02:12.000Z</time>
      </trkpt>
      <trkpt lat="44.27843" lon="1.15994">
        <ele>226</ele>
        <time>2020-07-19T14:02:17.000Z</time>
      </trkpt>
      <trkpt lat="44.27837" lon="1.15987">
        <ele>225</ele>
        <time>2020-07-19T14:02:21.000Z</time>
      </trkpt>
      <trkpt lat="44.2783" lon="1.15977">
        <ele>225</ele>
        <time>2020-07-19T14:02:25.000Z</time>
      </trkpt>
      <trkpt lat="44.27821" lon="1.15968">
        <ele>224</ele>
        <time>2020-07-19T14:02:29.000Z</time>
      </trkpt>
      <trkpt lat="44.27809" lon="1.15954">
        <ele>221</ele>
        <time>2020-07-19T14:02:34.000Z</time>
      </trkpt>
      <trkpt lat="44.27801" lon="1.15941">
        <ele>221</ele>
        <time>2020-07-19T14:02:39.000Z</time>
      </trkpt>
      <trkpt lat="44.27791" lon="1.15935">
        <ele>221</ele>
        <time>2020-07-19T14:02:43.000Z</time>
      </trkpt>
      <trkpt lat="44.27776" lon="1.15938">
        <ele>222</ele>
        <time>2020-07-19T14:02:48.000Z</time>
      </trkpt>
      <trkpt lat="44.27768" lon="1.1594">
        <ele>222</ele>
        <time>2020-07-19T14:02:53.000Z</time>
      </trkpt>
      <trkpt lat="44.2776" lon="1.15943">
        <ele>223</ele>
        <time>2020-07-19T14:02:58.000Z</time>
      </trkpt>
      <trkpt lat="44.27749" lon="1.15947">
        <ele>223</ele>
        <time>2020-07-19T14:03:03.000Z</time>
      </trkpt>
      <trkpt lat="44.27736" lon="1.15954">
        <ele>225</ele>
        <time>2020-07-19T14:03:07.000Z</time>
      </trkpt>
      <trkpt lat="44.27723" lon="1.15961">
        <ele>226</ele>
        <time>2020-07-19T14:03:11.000Z</time>
      </trkpt>
      <trkpt lat="44.27713" lon="1.15971">
        <ele>227</ele>
        <time>2020-07-19T14:03:15.000Z</time>
      </trkpt>
      <trkpt lat="44.27703" lon="1.15982">
        <ele>229</ele>
        <time>2020-07-19T14:03:20.000Z</time>
      </trkpt>
      <trkpt lat="44.27688" lon="1.15986">
        <ele>231</ele>
        <time>2020-07-19T14:03:25.000Z</time>
      </trkpt>
      <trkpt lat="44.27671" lon="1.15998">
        <ele>232</ele>
        <time>2020-07-19T14:03:30.000Z</time>
      </trkpt>
      <trkpt lat="44.27663" lon="1.16">
        <ele>231</ele>
        <time>2020-07-19T14:03:50.000Z</time>
      </trkpt>
      <trkpt lat="44.27653" lon="1.16004">
        <ele>229</ele>
        <time>2020-07-19T14:03:55.000Z</time>
      </trkpt>
      <trkpt lat="44.27645" lon="1.16004">
        <ele>227</ele>
        <time>2020-07-19T14:05:05.000Z</time>
      </trkpt>
      <trkpt lat="44.27638" lon="1.16006">
        <ele>225</ele>
        <time>2020-07-19T14:05:12.000Z</time>
      </trkpt>
      <trkpt lat="44.2763" lon="1.16005">
        <ele>223</ele>
        <time>2020-07-19T14:05:20.000Z</time>
      </trkpt>
      <trkpt lat="44.27621" lon="1.16011">
        <ele>223</ele>
        <time>2020-07-19T14:05:25.000Z</time>
      </trkpt>
      <trkpt lat="44.27613" lon="1.16019">
        <ele>221</ele>
        <time>2020-07-19T14:05:30.000Z</time>
      </trkpt>
      <trkpt lat="44.27605" lon="1.16025">
        <ele>219</ele>
        <time>2020-07-19T14:05:35.000Z</time>
      </trkpt>
      <trkpt lat="44.276" lon="1.16034">
        <ele>218</ele>
        <time>2020-07-19T14:05:42.000Z</time>
      </trkpt>
      <trkpt lat="44.27609" lon="1.16032">
        <ele>211</ele>
        <time>2020-07-19T14:07:25.000Z</time>
      </trkpt>
      <trkpt lat="44.27615" lon="1.16025">
        <ele>211</ele>
        <time>2020-07-19T14:07:34.000Z</time>
      </trkpt>
      <trkpt lat="44.27607" lon="1.16029">
        <ele>213</ele>
        <time>2020-07-19T14:08:11.000Z</time>
      </trkpt>
      <trkpt lat="44.27602" lon="1.16038">
        <ele>211</ele>
        <time>2020-07-19T14:08:36.000Z</time>
      </trkpt>
      <trkpt lat="44.27597" lon="1.16029">
        <ele>207</ele>
        <time>2020-07-19T14:09:08.000Z</time>
      </trkpt>
      <trkpt lat="44.27596" lon="1.16018">
        <ele>206</ele>
        <time>2020-07-19T14:09:12.000Z</time>
      </trkpt>
      <trkpt lat="44.27591" lon="1.16008">
        <ele>203</ele>
        <time>2020-07-19T14:09:26.000Z</time>
      </trkpt>
      <trkpt lat="44.27584" lon="1.16002">
        <ele>200</ele>
        <time>2020-07-19T14:09:57.000Z</time>
      </trkpt>
      <trkpt lat="44.27578" lon="1.15996">
        <ele>199</ele>
        <time>2020-07-19T14:10:10.000Z</time>
      </trkpt>
      <trkpt lat="44.27571" lon="1.15992">
        <ele>197</ele>
        <time>2020-07-19T14:10:31.000Z</time>
      </trkpt>
      <trkpt lat="44.2756" lon="1.15985">
        <ele>193</ele>
        <time>2020-07-19T14:10:35.000Z</time>
      </trkpt>
      <trkpt lat="44.27549" lon="1.15977">
        <ele>188</ele>
        <time>2020-07-19T14:10:40.000Z</time>
      </trkpt>
      <trkpt lat="44.27542" lon="1.1597">
        <ele>185</ele>
        <time>2020-07-19T14:10:44.000Z</time>
      </trkpt>
      <trkpt lat="44.27536" lon="1.15962">
        <ele>183</ele>
        <time>2020-07-19T14:10:50.000Z</time>
      </trkpt>
      <trkpt lat="44.2753" lon="1.15954">
        <ele>182</ele>
        <time>2020-07-19T14:10:58.000Z</time>
      </trkpt>
      <trkpt lat="44.27523" lon="1.15949">
        <ele>178</ele>
        <time>2020-07-19T14:11:05.000Z</time>
      </trkpt>
      <trkpt lat="44.27511" lon="1.15954">
        <ele>175</ele>
        <time>2020-07-19T14:11:10.000Z</time>
      </trkpt>
      <trkpt lat="44.27494" lon="1.15957">
        <ele>176</ele>
        <time>2020-07-19T14:11:14.000Z</time>
      </trkpt>
      <trkpt lat="44.27479" lon="1.15962">
        <ele>174</ele>
        <time>2020-07-19T14:11:18.000Z</time>
      </trkpt>
      <trkpt lat="44.27456" lon="1.15944">
        <ele>170</ele>
        <time>2020-07-19T14:11:23.000Z</time>
      </trkpt>
      <trkpt lat="44.27438" lon="1.15926">
        <ele>170</ele>
        <time>2020-07-19T14:11:27.000Z</time>
      </trkpt>
      <trkpt lat="44.27423" lon="1.15909">
        <ele>169</ele>
        <time>2020-07-19T14:11:31.000Z</time>
      </trkpt>
      <trkpt lat="44.27404" lon="1.15887">
        <ele>168</ele>
        <time>2020-07-19T14:11:36.000Z</time>
      </trkpt>
      <trkpt lat="44.27392" lon="1.15872">
        <ele>167</ele>
        <time>2020-07-19T14:11:40.000Z</time>
      </trkpt>
      <trkpt lat="44.27384" lon="1.15863">
        <ele>167</ele>
        <time>2020-07-19T14:11:45.000Z</time>
      </trkpt>
      <trkpt lat="44.27376" lon="1.15861">
        <ele>161</ele>
        <time>2020-07-19T14:15:27.000Z</time>
      </trkpt>
      <trkpt lat="44.27368" lon="1.15865">
        <ele>161</ele>
        <time>2020-07-19T14:15:35.000Z</time>
      </trkpt>
      <trkpt lat="44.2736" lon="1.15864">
        <ele>161</ele>
        <time>2020-07-19T14:15:40.000Z</time>
      </trkpt>
      <trkpt lat="44.27351" lon="1.15861">
        <ele>163</ele>
        <time>2020-07-19T14:15:46.000Z</time>
      </trkpt>
      <trkpt lat="44.27343" lon="1.15862">
        <ele>166</ele>
        <time>2020-07-19T14:15:53.000Z</time>
      </trkpt>
      <trkpt lat="44.27335" lon="1.15861">
        <ele>168</ele>
        <time>2020-07-19T14:16:02.000Z</time>
      </trkpt>
      <trkpt lat="44.27326" lon="1.15862">
        <ele>168</ele>
        <time>2020-07-19T14:16:09.000Z</time>
      </trkpt>
      <trkpt lat="44.27319" lon="1.15859">
        <ele>169</ele>
        <time>2020-07-19T14:16:14.000Z</time>
      </trkpt>
      <trkpt lat="44.27309" lon="1.15857">
        <ele>167</ele>
        <time>2020-07-19T14:16:19.000Z</time>
      </trkpt>
      <trkpt lat="44.27301" lon="1.15851">
        <ele>168</ele>
        <time>2020-07-19T14:16:23.000Z</time>
      </trkpt>
      <trkpt lat="44.2729" lon="1.15846">
        <ele>166</ele>
        <time>2020-07-19T14:16:28.000Z</time>
      </trkpt>
      <trkpt lat="44.27282" lon="1.15841">
        <ele>164</ele>
        <time>2020-07-19T14:16:32.000Z</time>
      </trkpt>
      <trkpt lat="44.27272" lon="1.15839">
        <ele>164</ele>
        <time>2020-07-19T14:16:37.000Z</time>
      </trkpt>
      <trkpt lat="44.27264" lon="1.15837">
        <ele>164</ele>
        <time>2020-07-19T14:16:41.000Z</time>
      </trkpt>
      <trkpt lat="44.27254" lon="1.15835">
        <ele>164</ele>
        <time>2020-07-19T14:16:46.000Z</time>
      </trkpt>
      <trkpt lat="44.27246" lon="1.15833">
        <ele>163</ele>
        <time>2020-07-19T14:16:51.000Z</time>
      </trkpt>
      <trkpt lat="44.27238" lon="1.15832">
        <ele>162</ele>
        <time>2020-07-19T14:16:56.000Z</time>
      </trkpt>
      <trkpt lat="44.2723" lon="1.1583">
        <ele>161</ele>
        <time>2020-07-19T14:17:01.000Z</time>
      </trkpt>
      <trkpt lat="44.27223" lon="1.15824">
        <ele>160</ele>
        <time>2020-07-19T14:17:06.000Z</time>
      </trkpt>
      <trkpt lat="44.27215" lon="1.15818">
        <ele>161</ele>
        <time>2020-07-19T14:17:11.000Z</time>
      </trkpt>
      <trkpt lat="44.27206" lon="1.15809">
        <ele>161</ele>
        <time>2020-07-19T14:17:16.000Z</time>
      </trkpt>
      <trkpt lat="44.272" lon="1.15802">
        <ele>161</ele>
        <time>2020-07-19T14:17:23.000Z</time>
      </trkpt>
      <trkpt lat="44.27192" lon="1.15796">
        <ele>165</ele>
        <time>2020-07-19T14:17:29.000Z</time>
      </trkpt>
      <trkpt lat="44.27186" lon="1.15789">
        <ele>167</ele>
        <time>2020-07-19T14:17:35.000Z</time>
      </trkpt>
      <trkpt lat="44.27179" lon="1.15782">
        <ele>167</ele>
        <time>2020-07-19T14:17:42.000Z</time>
      </trkpt>
      <trkpt lat="44.2717" lon="1.15779">
        <ele>168</ele>
        <time>2020-07-19T14:17:47.000Z</time>
      </trkpt>
      <trkpt lat="44.27164" lon="1.15773">
        <ele>168</ele>
        <time>2020-07-19T14:17:53.000Z</time>
      </trkpt>
      <trkpt lat="44.27155" lon="1.15772">
        <ele>169</ele>
        <time>2020-07-19T14:17:57.000Z</time>
      </trkpt>
      <trkpt lat="44.27147" lon="1.1577">
        <ele>168</ele>
        <time>2020-07-19T14:18:07.000Z</time>
      </trkpt>
      <trkpt lat="44.27139" lon="1.15773">
        <ele>169</ele>
        <time>2020-07-19T14:18:15.000Z</time>
      </trkpt>
      <trkpt lat="44.27131" lon="1.15774">
        <ele>168</ele>
        <time>2020-07-19T14:18:22.000Z</time>
      </trkpt>
      <trkpt lat="44.27122" lon="1.15771">
        <ele>166</ele>
        <time>2020-07-19T14:18:28.000Z</time>
      </trkpt>
      <trkpt lat="44.27117" lon="1.15761">
        <ele>171</ele>
        <time>2020-07-19T14:18:50.000Z</time>
      </trkpt>
      <trkpt lat="44.27118" lon="1.15773">
        <ele>176</ele>
        <time>2020-07-19T14:19:24.000Z</time>
      </trkpt>
      <trkpt lat="44.2711" lon="1.15778">
        <ele>177</ele>
        <time>2020-07-19T14:19:56.000Z</time>
      </trkpt>
      <trkpt lat="44.27118" lon="1.15773">
        <ele>177</ele>
        <time>2020-07-19T14:20:30.000Z</time>
      </trkpt>
      <trkpt lat="44.27117" lon="1.15759">
        <ele>176</ele>
        <time>2020-07-19T14:20:35.000Z</time>
      </trkpt>
      <trkpt lat="44.2711" lon="1.15766">
        <ele>177</ele>
        <time>2020-07-19T14:20:56.000Z</time>
      </trkpt>
      <trkpt lat="44.27111" lon="1.15778">
        <ele>181</ele>
        <time>2020-07-19T14:22:23.000Z</time>
      </trkpt>
      <trkpt lat="44.27119" lon="1.15777">
        <ele>181</ele>
        <time>2020-07-19T14:22:32.000Z</time>
      </trkpt>
      <trkpt lat="44.27111" lon="1.15779">
        <ele>180</ele>
        <time>2020-07-19T14:23:06.000Z</time>
      </trkpt>
      <trkpt lat="44.27103" lon="1.15776">
        <ele>179</ele>
        <time>2020-07-19T14:23:11.000Z</time>
      </trkpt>
      <trkpt lat="44.27095" lon="1.15775">
        <ele>180</ele>
        <time>2020-07-19T14:23:15.000Z</time>
      </trkpt>
      <trkpt lat="44.27079" lon="1.15774">
        <ele>181</ele>
        <time>2020-07-19T14:23:20.000Z</time>
      </trkpt>
      <trkpt lat="44.27063" lon="1.1577">
        <ele>181</ele>
        <time>2020-07-19T14:23:25.000Z</time>
      </trkpt>
      <trkpt lat="44.27051" lon="1.15768">
        <ele>183</ele>
        <time>2020-07-19T14:23:29.000Z</time>
      </trkpt>
      <trkpt lat="44.27041" lon="1.15765">
        <ele>184</ele>
        <time>2020-07-19T14:23:34.000Z</time>
      </trkpt>
      <trkpt lat="44.27033" lon="1.15763">
        <ele>184</ele>
        <time>2020-07-19T14:23:39.000Z</time>
      </trkpt>
      <trkpt lat="44.27024" lon="1.15761">
        <ele>185</ele>
        <time>2020-07-19T14:23:43.000Z</time>
      </trkpt>
      <trkpt lat="44.27012" lon="1.15755">
        <ele>186</ele>
        <time>2020-07-19T14:23:48.000Z</time>
      </trkpt>
      <trkpt lat="44.26996" lon="1.15742">
        <ele>185</ele>
        <time>2020-07-19T14:23:52.000Z</time>
      </trkpt>
      <trkpt lat="44.26967" lon="1.15743">
        <ele>184</ele>
        <time>2020-07-19T14:23:57.000Z</time>
      </trkpt>
      <trkpt lat="44.26944" lon="1.15765">
        <ele>181</ele>
        <time>2020-07-19T14:24:01.000Z</time>
      </trkpt>
      <trkpt lat="44.26932" lon="1.15775">
        <ele>182</ele>
        <time>2020-07-19T14:24:05.000Z</time>
      </trkpt>
      <trkpt lat="44.26924" lon="1.15779">
        <ele>180</ele>
        <time>2020-07-19T14:24:09.000Z</time>
      </trkpt>
      <trkpt lat="44.26915" lon="1.15782">
        <ele>176</ele>
        <time>2020-07-19T14:24:14.000Z</time>
      </trkpt>
      <trkpt lat="44.26908" lon="1.15787">
        <ele>173</ele>
        <time>2020-07-19T14:24:44.000Z</time>
      </trkpt>
      <trkpt lat="44.26897" lon="1.15798">
        <ele>172</ele>
        <time>2020-07-19T14:24:48.000Z</time>
      </trkpt>
      <trkpt lat="44.26863" lon="1.15811">
        <ele>168</ele>
        <time>2020-07-19T14:24:53.000Z</time>
      </trkpt>
      <trkpt lat="44.2681" lon="1.15809">
        <ele>159</ele>
        <time>2020-07-19T14:24:58.000Z</time>
      </trkpt>
      <trkpt lat="44.26767" lon="1.15788">
        <ele>153</ele>
        <time>2020-07-19T14:25:02.000Z</time>
      </trkpt>
      <trkpt lat="44.26702" lon="1.15783">
        <ele>148</ele>
        <time>2020-07-19T14:25:07.000Z</time>
      </trkpt>
      <trkpt lat="44.26648" lon="1.15779">
        <ele>142</ele>
        <time>2020-07-19T14:25:11.000Z</time>
      </trkpt>
      <trkpt lat="44.26599" lon="1.15778">
        <ele>133</ele>
        <time>2020-07-19T14:25:15.000Z</time>
      </trkpt>
      <trkpt lat="44.26579" lon="1.15773">
        <ele>131</ele>
        <time>2020-07-19T14:25:19.000Z</time>
      </trkpt>
      <trkpt lat="44.26575" lon="1.1575">
        <ele>130</ele>
        <time>2020-07-19T14:25:23.000Z</time>
      </trkpt>
      <trkpt lat="44.26569" lon="1.15715">
        <ele>129</ele>
        <time>2020-07-19T14:25:28.000Z</time>
      </trkpt>
      <trkpt lat="44.26564" lon="1.15683">
        <ele>129</ele>
        <time>2020-07-19T14:25:32.000Z</time>
      </trkpt>
      <trkpt lat="44.26556" lon="1.15641">
        <ele>127</ele>
        <time>2020-07-19T14:25:37.000Z</time>
      </trkpt>
      <trkpt lat="44.26548" lon="1.15606">
        <ele>126</ele>
        <time>2020-07-19T14:25:41.000Z</time>
      </trkpt>
      <trkpt lat="44.26534" lon="1.15572">
        <ele>125</ele>
        <time>2020-07-19T14:25:45.000Z</time>
      </trkpt>
      <trkpt lat="44.26519" lon="1.1554">
        <ele>125</ele>
        <time>2020-07-19T14:25:49.000Z</time>
      </trkpt>
      <trkpt lat="44.26505" lon="1.15506">
        <ele>125</ele>
        <time>2020-07-19T14:25:53.000Z</time>
      </trkpt>
      <trkpt lat="44.26485" lon="1.15464">
        <ele>124</ele>
        <time>2020-07-19T14:25:58.000Z</time>
      </trkpt>
      <trkpt lat="44.26464" lon="1.15419">
        <ele>123</ele>
        <time>2020-07-19T14:26:03.000Z</time>
      </trkpt>
      <trkpt lat="44.26449" lon="1.15385">
        <ele>123</ele>
        <time>2020-07-19T14:26:07.000Z</time>
      </trkpt>
      <trkpt lat="44.26434" lon="1.15346">
        <ele>123</ele>
        <time>2020-07-19T14:26:12.000Z</time>
      </trkpt>
      <trkpt lat="44.26425" lon="1.15315">
        <ele>123</ele>
        <time>2020-07-19T14:26:16.000Z</time>
      </trkpt>
      <trkpt lat="44.26416" lon="1.15286">
        <ele>123</ele>
        <time>2020-07-19T14:26:20.000Z</time>
      </trkpt>
      <trkpt lat="44.26407" lon="1.15257">
        <ele>123</ele>
        <time>2020-07-19T14:26:24.000Z</time>
      </trkpt>
      <trkpt lat="44.26398" lon="1.15224">
        <ele>123</ele>
        <time>2020-07-19T14:26:28.000Z</time>
      </trkpt>
      <trkpt lat="44.2639" lon="1.15193">
        <ele>123</ele>
        <time>2020-07-19T14:26:32.000Z</time>
      </trkpt>
      <trkpt lat="44.26378" lon="1.15155">
        <ele>123</ele>
        <time>2020-07-19T14:26:37.000Z</time>
      </trkpt>
      <trkpt lat="44.26369" lon="1.15125">
        <ele>122</ele>
        <time>2020-07-19T14:26:41.000Z</time>
      </trkpt>
      <trkpt lat="44.26361" lon="1.15096">
        <ele>122</ele>
        <time>2020-07-19T14:26:45.000Z</time>
      </trkpt>
      <trkpt lat="44.26355" lon="1.15068">
        <ele>122</ele>
        <time>2020-07-19T14:26:49.000Z</time>
      </trkpt>
      <trkpt lat="44.26348" lon="1.15038">
        <ele>121</ele>
        <time>2020-07-19T14:26:54.000Z</time>
      </trkpt>
      <trkpt lat="44.26343" lon="1.15013">
        <ele>121</ele>
        <time>2020-07-19T14:26:58.000Z</time>
      </trkpt>
      <trkpt lat="44.2634" lon="1.14987">
        <ele>121</ele>
        <time>2020-07-19T14:27:03.000Z</time>
      </trkpt>
      <trkpt lat="44.2634" lon="1.14967">
        <ele>121</ele>
        <time>2020-07-19T14:27:07.000Z</time>
      </trkpt>
      <trkpt lat="44.2634" lon="1.14937">
        <ele>120</ele>
        <time>2020-07-19T14:27:12.000Z</time>
      </trkpt>
      <trkpt lat="44.26339" lon="1.14909">
        <ele>122</ele>
        <time>2020-07-19T14:27:17.000Z</time>
      </trkpt>
      <trkpt lat="44.26337" lon="1.14888">
        <ele>122</ele>
        <time>2020-07-19T14:27:21.000Z</time>
      </trkpt>
      <trkpt lat="44.26334" lon="1.14871">
        <ele>122</ele>
        <time>2020-07-19T14:27:25.000Z</time>
      </trkpt>
      <trkpt lat="44.2633" lon="1.14857">
        <ele>123</ele>
        <time>2020-07-19T14:27:29.000Z</time>
      </trkpt>
      <trkpt lat="44.26324" lon="1.14844">
        <ele>123</ele>
        <time>2020-07-19T14:27:33.000Z</time>
      </trkpt>
      <trkpt lat="44.26317" lon="1.14826">
        <ele>124</ele>
        <time>2020-07-19T14:27:38.000Z</time>
      </trkpt>
      <trkpt lat="44.26312" lon="1.14812">
        <ele>124</ele>
        <time>2020-07-19T14:27:42.000Z</time>
      </trkpt>
      <trkpt lat="44.26305" lon="1.14799">
        <ele>124</ele>
        <time>2020-07-19T14:27:46.000Z</time>
      </trkpt>
      <trkpt lat="44.26296" lon="1.14788">
        <ele>124</ele>
        <time>2020-07-19T14:27:50.000Z</time>
      </trkpt>
      <trkpt lat="44.26288" lon="1.14777">
        <ele>125</ele>
        <time>2020-07-19T14:27:54.000Z</time>
      </trkpt>
      <trkpt lat="44.26278" lon="1.14767">
        <ele>124</ele>
        <time>2020-07-19T14:27:58.000Z</time>
      </trkpt>
      <trkpt lat="44.26268" lon="1.14757">
        <ele>125</ele>
        <time>2020-07-19T14:28:02.000Z</time>
      </trkpt>
      <trkpt lat="44.2626" lon="1.14745">
        <ele>126</ele>
        <time>2020-07-19T14:28:06.000Z</time>
      </trkpt>
      <trkpt lat="44.26252" lon="1.14733">
        <ele>126</ele>
        <time>2020-07-19T14:28:10.000Z</time>
      </trkpt>
      <trkpt lat="44.26245" lon="1.14724">
        <ele>125</ele>
        <time>2020-07-19T14:28:14.000Z</time>
      </trkpt>
      <trkpt lat="44.26235" lon="1.14713">
        <ele>125</ele>
        <time>2020-07-19T14:28:18.000Z</time>
      </trkpt>
      <trkpt lat="44.26224" lon="1.14695">
        <ele>125</ele>
        <time>2020-07-19T14:28:23.000Z</time>
      </trkpt>
      <trkpt lat="44.26213" lon="1.14679">
        <ele>126</ele>
        <time>2020-07-19T14:28:28.000Z</time>
      </trkpt>
      <trkpt lat="44.26202" lon="1.14669">
        <ele>126</ele>
        <time>2020-07-19T14:28:32.000Z</time>
      </trkpt>
      <trkpt lat="44.26193" lon="1.14657">
        <ele>127</ele>
        <time>2020-07-19T14:28:37.000Z</time>
      </trkpt>
      <trkpt lat="44.26201" lon="1.14651">
        <ele>127</ele>
        <time>2020-07-19T14:28:42.000Z</time>
      </trkpt>
      <trkpt lat="44.26195" lon="1.14643">
        <ele>126</ele>
        <time>2020-07-19T14:28:50.000Z</time>
      </trkpt>
      <trkpt lat="44.2618" lon="1.14627">
        <ele>126</ele>
        <time>2020-07-19T14:28:55.000Z</time>
      </trkpt>
      <trkpt lat="44.26173" lon="1.14604">
        <ele>126</ele>
        <time>2020-07-19T14:28:59.000Z</time>
      </trkpt>
      <trkpt lat="44.26167" lon="1.14585">
        <ele>126</ele>
        <time>2020-07-19T14:29:03.000Z</time>
      </trkpt>
      <trkpt lat="44.26148" lon="1.1457">
        <ele>126</ele>
        <time>2020-07-19T14:29:07.000Z</time>
      </trkpt>
      <trkpt lat="44.26128" lon="1.14565">
        <ele>125</ele>
        <time>2020-07-19T14:29:11.000Z</time>
      </trkpt>
      <trkpt lat="44.2611" lon="1.14563">
        <ele>125</ele>
        <time>2020-07-19T14:29:16.000Z</time>
      </trkpt>
      <trkpt lat="44.26095" lon="1.14551">
        <ele>125</ele>
        <time>2020-07-19T14:29:20.000Z</time>
      </trkpt>
      <trkpt lat="44.26086" lon="1.14538">
        <ele>124</ele>
        <time>2020-07-19T14:29:24.000Z</time>
      </trkpt>
      <trkpt lat="44.26079" lon="1.14524">
        <ele>124</ele>
        <time>2020-07-19T14:29:29.000Z</time>
      </trkpt>
      <trkpt lat="44.26066" lon="1.14511">
        <ele>124</ele>
        <time>2020-07-19T14:29:34.000Z</time>
      </trkpt>
      <trkpt lat="44.26058" lon="1.14496">
        <ele>125</ele>
        <time>2020-07-19T14:29:39.000Z</time>
      </trkpt>
      <trkpt lat="44.26049" lon="1.14484">
        <ele>125</ele>
        <time>2020-07-19T14:29:44.000Z</time>
      </trkpt>
      <trkpt lat="44.26043" lon="1.14476">
        <ele>125</ele>
        <time>2020-07-19T14:29:48.000Z</time>
      </trkpt>
      <trkpt lat="44.26032" lon="1.14467">
        <ele>125</ele>
        <time>2020-07-19T14:29:53.000Z</time>
      </trkpt>
      <trkpt lat="44.26025" lon="1.14459">
        <ele>126</ele>
        <time>2020-07-19T14:30:02.000Z</time>
      </trkpt>
      <trkpt lat="44.26025" lon="1.14447">
        <ele>126</ele>
        <time>2020-07-19T14:30:07.000Z</time>
      </trkpt>
      <trkpt lat="44.26021" lon="1.1443">
        <ele>126</ele>
        <time>2020-07-19T14:30:12.000Z</time>
      </trkpt>
      <trkpt lat="44.26015" lon="1.14417">
        <ele>126</ele>
        <time>2020-07-19T14:30:16.000Z</time>
      </trkpt>
      <trkpt lat="44.26014" lon="1.144">
        <ele>125</ele>
        <time>2020-07-19T14:30:20.000Z</time>
      </trkpt>
      <trkpt lat="44.26017" lon="1.14382">
        <ele>126</ele>
        <time>2020-07-19T14:30:25.000Z</time>
      </trkpt>
      <trkpt lat="44.26019" lon="1.14367">
        <ele>126</ele>
        <time>2020-07-19T14:30:29.000Z</time>
      </trkpt>
      <trkpt lat="44.26022" lon="1.14352">
        <ele>126</ele>
        <time>2020-07-19T14:30:34.000Z</time>
      </trkpt>
      <trkpt lat="44.26027" lon="1.14331">
        <ele>126</ele>
        <time>2020-07-19T14:30:37.000Z</time>
      </trkpt>
      <trkpt lat="44.26034" lon="1.143">
        <ele>121</ele>
        <time>2020-07-19T14:30:42.000Z</time>
      </trkpt>
      <trkpt lat="44.2604" lon="1.14272">
        <ele>114</ele>
        <time>2020-07-19T14:30:47.000Z</time>
      </trkpt>
      <trkpt lat="44.26057" lon="1.14233">
        <ele>110</ele>
        <time>2020-07-19T14:30:51.000Z</time>
      </trkpt>
      <trkpt lat="44.26083" lon="1.14189">
        <ele>107</ele>
        <time>2020-07-19T14:30:55.000Z</time>
      </trkpt>
      <trkpt lat="44.26125" lon="1.14134">
        <ele>101</ele>
        <time>2020-07-19T14:31:00.000Z</time>
      </trkpt>
      <trkpt lat="44.26164" lon="1.14086">
        <ele>103</ele>
        <time>2020-07-19T14:31:05.000Z</time>
      </trkpt>
      <trkpt lat="44.26187" lon="1.14043">
        <ele>95</ele>
        <time>2020-07-19T14:31:09.000Z</time>
      </trkpt>
      <trkpt lat="44.26198" lon="1.13979">
        <ele>88</ele>
        <time>2020-07-19T14:31:14.000Z</time>
      </trkpt>
      <trkpt lat="44.26211" lon="1.13934">
        <ele>90</ele>
        <time>2020-07-19T14:31:18.000Z</time>
      </trkpt>
      <trkpt lat="44.26244" lon="1.139">
        <ele>91</ele>
        <time>2020-07-19T14:31:22.000Z</time>
      </trkpt>
      <trkpt lat="44.26287" lon="1.13873">
        <ele>90</ele>
        <time>2020-07-19T14:31:27.000Z</time>
      </trkpt>
      <trkpt lat="44.2631" lon="1.1385">
        <ele>90</ele>
        <time>2020-07-19T14:31:30.000Z</time>
      </trkpt>
      <trkpt lat="44.26342" lon="1.13823">
        <ele>89</ele>
        <time>2020-07-19T14:31:34.000Z</time>
      </trkpt>
      <trkpt lat="44.26381" lon="1.13797">
        <ele>89</ele>
        <time>2020-07-19T14:31:39.000Z</time>
      </trkpt>
      <trkpt lat="44.26398" lon="1.13767">
        <ele>89</ele>
        <time>2020-07-19T14:31:44.000Z</time>
      </trkpt>
      <trkpt lat="44.26413" lon="1.13734">
        <ele>90</ele>
        <time>2020-07-19T14:31:48.000Z</time>
      </trkpt>
      <trkpt lat="44.26438" lon="1.13715">
        <ele>89</ele>
        <time>2020-07-19T14:31:53.000Z</time>
      </trkpt>
      <trkpt lat="44.26461" lon="1.13715">
        <ele>89</ele>
        <time>2020-07-19T14:31:57.000Z</time>
      </trkpt>
      <trkpt lat="44.26472" lon="1.1373">
        <ele>90</ele>
        <time>2020-07-19T14:32:01.000Z</time>
      </trkpt>
      <trkpt lat="44.26485" lon="1.13741">
        <ele>93</ele>
        <time>2020-07-19T14:32:05.000Z</time>
      </trkpt>
      <trkpt lat="44.26502" lon="1.1375">
        <ele>96</ele>
        <time>2020-07-19T14:32:10.000Z</time>
      </trkpt>
      <trkpt lat="44.26514" lon="1.1376">
        <ele>97</ele>
        <time>2020-07-19T14:32:14.000Z</time>
      </trkpt>
      <trkpt lat="44.26527" lon="1.13779">
        <ele>97</ele>
        <time>2020-07-19T14:32:18.000Z</time>
      </trkpt>
      <trkpt lat="44.26543" lon="1.13789">
        <ele>98</ele>
        <time>2020-07-19T14:32:23.000Z</time>
      </trkpt>
      <trkpt lat="44.26564" lon="1.13798">
        <ele>99</ele>
        <time>2020-07-19T14:32:28.000Z</time>
      </trkpt>
      <trkpt lat="44.26578" lon="1.13812">
        <ele>99</ele>
        <time>2020-07-19T14:32:32.000Z</time>
      </trkpt>
      <trkpt lat="44.26587" lon="1.13828">
        <ele>101</ele>
        <time>2020-07-19T14:32:36.000Z</time>
      </trkpt>
      <trkpt lat="44.26599" lon="1.13832">
        <ele>102</ele>
        <time>2020-07-19T14:32:40.000Z</time>
      </trkpt>
      <trkpt lat="44.26604" lon="1.13841">
        <ele>105</ele>
        <time>2020-07-19T14:33:18.000Z</time>
      </trkpt>
      <trkpt lat="44.26607" lon="1.13851">
        <ele>105</ele>
        <time>2020-07-19T14:33:23.000Z</time>
      </trkpt>
      <trkpt lat="44.26615" lon="1.13859">
        <ele>106</ele>
        <time>2020-07-19T14:33:27.000Z</time>
      </trkpt>
      <trkpt lat="44.26626" lon="1.13867">
        <ele>106</ele>
        <time>2020-07-19T14:33:31.000Z</time>
      </trkpt>
      <trkpt lat="44.26638" lon="1.13875">
        <ele>107</ele>
        <time>2020-07-19T14:33:35.000Z</time>
      </trkpt>
      <trkpt lat="44.26651" lon="1.13885">
        <ele>106</ele>
        <time>2020-07-19T14:33:39.000Z</time>
      </trkpt>
      <trkpt lat="44.26667" lon="1.13897">
        <ele>105</ele>
        <time>2020-07-19T14:33:44.000Z</time>
      </trkpt>
      <trkpt lat="44.26679" lon="1.13906">
        <ele>106</ele>
        <time>2020-07-19T14:33:48.000Z</time>
      </trkpt>
      <trkpt lat="44.26694" lon="1.13919">
        <ele>105</ele>
        <time>2020-07-19T14:33:53.000Z</time>
      </trkpt>
      <trkpt lat="44.26707" lon="1.1393">
        <ele>106</ele>
        <time>2020-07-19T14:33:57.000Z</time>
      </trkpt>
      <trkpt lat="44.2672" lon="1.1394">
        <ele>107</ele>
        <time>2020-07-19T14:34:01.000Z</time>
      </trkpt>
      <trkpt lat="44.26733" lon="1.13948">
        <ele>107</ele>
        <time>2020-07-19T14:34:05.000Z</time>
      </trkpt>
      <trkpt lat="44.26745" lon="1.13957">
        <ele>107</ele>
        <time>2020-07-19T14:34:09.000Z</time>
      </trkpt>
      <trkpt lat="44.26758" lon="1.13966">
        <ele>108</ele>
        <time>2020-07-19T14:34:14.000Z</time>
      </trkpt>
      <trkpt lat="44.26767" lon="1.13972">
        <ele>108</ele>
        <time>2020-07-19T14:34:18.000Z</time>
      </trkpt>
      <trkpt lat="44.26771" lon="1.13994">
        <ele>106</ele>
        <time>2020-07-19T14:34:23.000Z</time>
      </trkpt>
      <trkpt lat="44.26764" lon="1.14011">
        <ele>108</ele>
        <time>2020-07-19T14:34:27.000Z</time>
      </trkpt>
      <trkpt lat="44.26767" lon="1.14022">
        <ele>109</ele>
        <time>2020-07-19T14:35:26.000Z</time>
      </trkpt>
      <trkpt lat="44.26768" lon="1.14033">
        <ele>109</ele>
        <time>2020-07-19T14:35:46.000Z</time>
      </trkpt>
      <trkpt lat="44.26765" lon="1.14043">
        <ele>109</ele>
        <time>2020-07-19T14:35:51.000Z</time>
      </trkpt>
      <trkpt lat="44.26761" lon="1.14054">
        <ele>107</ele>
        <time>2020-07-19T14:35:56.000Z</time>
      </trkpt>
      <trkpt lat="44.26756" lon="1.14063">
        <ele>109</ele>
        <time>2020-07-19T14:36:17.000Z</time>
      </trkpt>
      <trkpt lat="44.26748" lon="1.14064">
        <ele>109</ele>
        <time>2020-07-19T14:36:29.000Z</time>
      </trkpt>
      <trkpt lat="44.26739" lon="1.14066">
        <ele>109</ele>
        <time>2020-07-19T14:36:34.000Z</time>
      </trkpt>
      <trkpt lat="44.26732" lon="1.14067">
        <ele>109</ele>
        <time>2020-07-19T14:36:38.000Z</time>
      </trkpt>
      <trkpt lat="44.26724" lon="1.14072">
        <ele>108</ele>
        <time>2020-07-19T14:36:42.000Z</time>
      </trkpt>
      <trkpt lat="44.26716" lon="1.14079">
        <ele>109</ele>
        <time>2020-07-19T14:39:32.000Z</time>
      </trkpt>
      <trkpt lat="44.26708" lon="1.14075">
        <ele>109</ele>
        <time>2020-07-19T14:39:38.000Z</time>
      </trkpt>
      <trkpt lat="44.26695" lon="1.14084">
        <ele>109</ele>
        <time>2020-07-19T14:39:42.000Z</time>
      </trkpt>
      <trkpt lat="44.26679" lon="1.14077">
        <ele>110</ele>
        <time>2020-07-19T14:39:46.000Z</time>
      </trkpt>
      <trkpt lat="44.26663" lon="1.14068">
        <ele>111</ele>
        <time>2020-07-19T14:39:50.000Z</time>
      </trkpt>
      <trkpt lat="44.26646" lon="1.14062">
        <ele>111</ele>
        <time>2020-07-19T14:39:54.000Z</time>
      </trkpt>
      <trkpt lat="44.2663" lon="1.14055">
        <ele>110</ele>
        <time>2020-07-19T14:39:58.000Z</time>
      </trkpt>
      <trkpt lat="44.26609" lon="1.14045">
        <ele>110</ele>
        <time>2020-07-19T14:40:03.000Z</time>
      </trkpt>
      <trkpt lat="44.26593" lon="1.14036">
        <ele>111</ele>
        <time>2020-07-19T14:40:07.000Z</time>
      </trkpt>
      <trkpt lat="44.26574" lon="1.14025">
        <ele>111</ele>
        <time>2020-07-19T14:40:12.000Z</time>
      </trkpt>
      <trkpt lat="44.26555" lon="1.14013">
        <ele>110</ele>
        <time>2020-07-19T14:40:17.000Z</time>
      </trkpt>
      <trkpt lat="44.2654" lon="1.14005">
        <ele>109</ele>
        <time>2020-07-19T14:40:21.000Z</time>
      </trkpt>
      <trkpt lat="44.26525" lon="1.13995">
        <ele>108</ele>
        <time>2020-07-19T14:40:25.000Z</time>
      </trkpt>
      <trkpt lat="44.26509" lon="1.13985">
        <ele>109</ele>
        <time>2020-07-19T14:40:29.000Z</time>
      </trkpt>
      <trkpt lat="44.26493" lon="1.13975">
        <ele>109</ele>
        <time>2020-07-19T14:40:33.000Z</time>
      </trkpt>
      <trkpt lat="44.26477" lon="1.13965">
        <ele>109</ele>
        <time>2020-07-19T14:40:37.000Z</time>
      </trkpt>
      <trkpt lat="44.26459" lon="1.13955">
        <ele>109</ele>
        <time>2020-07-19T14:40:41.000Z</time>
      </trkpt>
      <trkpt lat="44.26439" lon="1.13943">
        <ele>109</ele>
        <time>2020-07-19T14:40:46.000Z</time>
      </trkpt>
      <trkpt lat="44.26423" lon="1.13933">
        <ele>109</ele>
        <time>2020-07-19T14:40:50.000Z</time>
      </trkpt>
      <trkpt lat="44.26403" lon="1.13919">
        <ele>110</ele>
        <time>2020-07-19T14:40:55.000Z</time>
      </trkpt>
      <trkpt lat="44.26386" lon="1.13909">
        <ele>111</ele>
        <time>2020-07-19T14:40:59.000Z</time>
      </trkpt>
      <trkpt lat="44.2637" lon="1.139">
        <ele>111</ele>
        <time>2020-07-19T14:41:03.000Z</time>
      </trkpt>
      <trkpt lat="44.26354" lon="1.1389">
        <ele>111</ele>
        <time>2020-07-19T14:41:07.000Z</time>
      </trkpt>
      <trkpt lat="44.26335" lon="1.13879">
        <ele>111</ele>
        <time>2020-07-19T14:41:12.000Z</time>
      </trkpt>
      <trkpt lat="44.26319" lon="1.1387">
        <ele>111</ele>
        <time>2020-07-19T14:41:17.000Z</time>
      </trkpt>
      <trkpt lat="44.26305" lon="1.13864">
        <ele>111</ele>
        <time>2020-07-19T14:41:21.000Z</time>
      </trkpt>
      <trkpt lat="44.26289" lon="1.13871">
        <ele>112</ele>
        <time>2020-07-19T14:41:26.000Z</time>
      </trkpt>
      <trkpt lat="44.26278" lon="1.13881">
        <ele>112</ele>
        <time>2020-07-19T14:41:30.000Z</time>
      </trkpt>
      <trkpt lat="44.26266" lon="1.13889">
        <ele>112</ele>
        <time>2020-07-19T14:41:35.000Z</time>
      </trkpt>
      <trkpt lat="44.26258" lon="1.13898">
        <ele>112</ele>
        <time>2020-07-19T14:41:39.000Z</time>
      </trkpt>
      <trkpt lat="44.26249" lon="1.13907">
        <ele>111</ele>
        <time>2020-07-19T14:41:44.000Z</time>
      </trkpt>
      <trkpt lat="44.26243" lon="1.13918">
        <ele>111</ele>
        <time>2020-07-19T14:41:49.000Z</time>
      </trkpt>
      <trkpt lat="44.26237" lon="1.13927">
        <ele>112</ele>
        <time>2020-07-19T14:41:53.000Z</time>
      </trkpt>
      <trkpt lat="44.26233" lon="1.13941">
        <ele>113</ele>
        <time>2020-07-19T14:41:58.000Z</time>
      </trkpt>
      <trkpt lat="44.2623" lon="1.13957">
        <ele>113</ele>
        <time>2020-07-19T14:42:03.000Z</time>
      </trkpt>
      <trkpt lat="44.26226" lon="1.1397">
        <ele>113</ele>
        <time>2020-07-19T14:42:07.000Z</time>
      </trkpt>
      <trkpt lat="44.26223" lon="1.13986">
        <ele>114</ele>
        <time>2020-07-19T14:42:12.000Z</time>
      </trkpt>
      <trkpt lat="44.26221" lon="1.13999">
        <ele>114</ele>
        <time>2020-07-19T14:42:16.000Z</time>
      </trkpt>
      <trkpt lat="44.26219" lon="1.14011">
        <ele>114</ele>
        <time>2020-07-19T14:42:20.000Z</time>
      </trkpt>
      <trkpt lat="44.26216" lon="1.14025">
        <ele>115</ele>
        <time>2020-07-19T14:42:25.000Z</time>
      </trkpt>
      <trkpt lat="44.26213" lon="1.14036">
        <ele>115</ele>
        <time>2020-07-19T14:42:29.000Z</time>
      </trkpt>
      <trkpt lat="44.26209" lon="1.14051">
        <ele>115</ele>
        <time>2020-07-19T14:42:34.000Z</time>
      </trkpt>
      <trkpt lat="44.26204" lon="1.14065">
        <ele>116</ele>
        <time>2020-07-19T14:42:39.000Z</time>
      </trkpt>
      <trkpt lat="44.26197" lon="1.14077">
        <ele>117</ele>
        <time>2020-07-19T14:42:44.000Z</time>
      </trkpt>
      <trkpt lat="44.2619" lon="1.14086">
        <ele>118</ele>
        <time>2020-07-19T14:42:49.000Z</time>
      </trkpt>
      <trkpt lat="44.26184" lon="1.14093">
        <ele>118</ele>
        <time>2020-07-19T14:42:53.000Z</time>
      </trkpt>
      <trkpt lat="44.26178" lon="1.14099">
        <ele>118</ele>
        <time>2020-07-19T14:42:57.000Z</time>
      </trkpt>
      <trkpt lat="44.26171" lon="1.14105">
        <ele>119</ele>
        <time>2020-07-19T14:43:02.000Z</time>
      </trkpt>
      <trkpt lat="44.26165" lon="1.14098">
        <ele>121</ele>
        <time>2020-07-19T14:43:18.000Z</time>
      </trkpt>
      <trkpt lat="44.26156" lon="1.14095">
        <ele>122</ele>
        <time>2020-07-19T14:43:25.000Z</time>
      </trkpt>
      <trkpt lat="44.26148" lon="1.1409">
        <ele>122</ele>
        <time>2020-07-19T14:43:36.000Z</time>
      </trkpt>
      <trkpt lat="44.26141" lon="1.14084">
        <ele>123</ele>
        <time>2020-07-19T14:43:47.000Z</time>
      </trkpt>
      <trkpt lat="44.26134" lon="1.1408">
        <ele>124</ele>
        <time>2020-07-19T14:43:58.000Z</time>
      </trkpt>
      <trkpt lat="44.26127" lon="1.14075">
        <ele>125</ele>
        <time>2020-07-19T14:44:11.000Z</time>
      </trkpt>
      <trkpt lat="44.26119" lon="1.1407">
        <ele>126</ele>
        <time>2020-07-19T14:44:17.000Z</time>
      </trkpt>
      <trkpt lat="44.26114" lon="1.14068">
        <ele>126</ele>
        <time>2020-07-19T14:44:28.000Z</time>
      </trkpt>
      <trkpt lat="44.26107" lon="1.14063">
        <ele>129</ele>
        <time>2020-07-19T14:44:34.000Z</time>
      </trkpt>
      <trkpt lat="44.26099" lon="1.14057">
        <ele>132</ele>
        <time>2020-07-19T14:44:40.000Z</time>
      </trkpt>
      <trkpt lat="44.26091" lon="1.14052">
        <ele>134</ele>
        <time>2020-07-19T14:44:45.000Z</time>
      </trkpt>
      <trkpt lat="44.26083" lon="1.14047">
        <ele>135</ele>
        <time>2020-07-19T14:44:52.000Z</time>
      </trkpt>
      <trkpt lat="44.26074" lon="1.14046">
        <ele>137</ele>
        <time>2020-07-19T14:45:02.000Z</time>
      </trkpt>
      <trkpt lat="44.26068" lon="1.14045">
        <ele>137</ele>
        <time>2020-07-19T14:45:08.000Z</time>
      </trkpt>
      <trkpt lat="44.26061" lon="1.14045">
        <ele>139</ele>
        <time>2020-07-19T14:45:14.000Z</time>
      </trkpt>
      <trkpt lat="44.26053" lon="1.14046">
        <ele>140</ele>
        <time>2020-07-19T14:45:24.000Z</time>
      </trkpt>
      <trkpt lat="44.26046" lon="1.14047">
        <ele>142</ele>
        <time>2020-07-19T14:45:33.000Z</time>
      </trkpt>
      <trkpt lat="44.26038" lon="1.14048">
        <ele>142</ele>
        <time>2020-07-19T14:45:40.000Z</time>
      </trkpt>
      <trkpt lat="44.26031" lon="1.14045">
        <ele>143</ele>
        <time>2020-07-19T14:45:50.000Z</time>
      </trkpt>
      <trkpt lat="44.26023" lon="1.14043">
        <ele>143</ele>
        <time>2020-07-19T14:46:00.000Z</time>
      </trkpt>
      <trkpt lat="44.26015" lon="1.1404">
        <ele>146</ele>
        <time>2020-07-19T14:46:10.000Z</time>
      </trkpt>
      <trkpt lat="44.26007" lon="1.14036">
        <ele>147</ele>
        <time>2020-07-19T14:46:21.000Z</time>
      </trkpt>
      <trkpt lat="44.25999" lon="1.14034">
        <ele>148</ele>
        <time>2020-07-19T14:46:29.000Z</time>
      </trkpt>
      <trkpt lat="44.2599" lon="1.14031">
        <ele>150</ele>
        <time>2020-07-19T14:46:39.000Z</time>
      </trkpt>
      <trkpt lat="44.25982" lon="1.14029">
        <ele>151</ele>
        <time>2020-07-19T14:46:46.000Z</time>
      </trkpt>
      <trkpt lat="44.25973" lon="1.14026">
        <ele>151</ele>
        <time>2020-07-19T14:46:53.000Z</time>
      </trkpt>
      <trkpt lat="44.25965" lon="1.14021">
        <ele>155</ele>
        <time>2020-07-19T14:47:06.000Z</time>
      </trkpt>
      <trkpt lat="44.25958" lon="1.14017">
        <ele>157</ele>
        <time>2020-07-19T14:47:13.000Z</time>
      </trkpt>
      <trkpt lat="44.25949" lon="1.14016">
        <ele>157</ele>
        <time>2020-07-19T14:47:24.000Z</time>
      </trkpt>
      <trkpt lat="44.25943" lon="1.14014">
        <ele>158</ele>
        <time>2020-07-19T14:47:29.000Z</time>
      </trkpt>
      <trkpt lat="44.25934" lon="1.14015">
        <ele>158</ele>
        <time>2020-07-19T14:47:41.000Z</time>
      </trkpt>
      <trkpt lat="44.25925" lon="1.14018">
        <ele>159</ele>
        <time>2020-07-19T14:47:53.000Z</time>
      </trkpt>
      <trkpt lat="44.25918" lon="1.14023">
        <ele>160</ele>
        <time>2020-07-19T14:48:02.000Z</time>
      </trkpt>
      <trkpt lat="44.25911" lon="1.1403">
        <ele>166</ele>
        <time>2020-07-19T14:48:32.000Z</time>
      </trkpt>
      <trkpt lat="44.25904" lon="1.14037">
        <ele>168</ele>
        <time>2020-07-19T14:48:46.000Z</time>
      </trkpt>
      <trkpt lat="44.25897" lon="1.14042">
        <ele>169</ele>
        <time>2020-07-19T14:48:52.000Z</time>
      </trkpt>
      <trkpt lat="44.25889" lon="1.14048">
        <ele>168</ele>
        <time>2020-07-19T14:49:04.000Z</time>
      </trkpt>
      <trkpt lat="44.25882" lon="1.14053">
        <ele>172</ele>
        <time>2020-07-19T14:49:12.000Z</time>
      </trkpt>
      <trkpt lat="44.25874" lon="1.14058">
        <ele>172</ele>
        <time>2020-07-19T14:49:20.000Z</time>
      </trkpt>
      <trkpt lat="44.25871" lon="1.14047">
        <ele>176</ele>
        <time>2020-07-19T14:49:45.000Z</time>
      </trkpt>
      <trkpt lat="44.25874" lon="1.14035">
        <ele>177</ele>
        <time>2020-07-19T14:50:00.000Z</time>
      </trkpt>
      <trkpt lat="44.25874" lon="1.14023">
        <ele>179</ele>
        <time>2020-07-19T14:50:07.000Z</time>
      </trkpt>
      <trkpt lat="44.25877" lon="1.14011">
        <ele>179</ele>
        <time>2020-07-19T14:50:14.000Z</time>
      </trkpt>
      <trkpt lat="44.25876" lon="1.13999">
        <ele>181</ele>
        <time>2020-07-19T14:50:20.000Z</time>
      </trkpt>
      <trkpt lat="44.25874" lon="1.13987">
        <ele>183</ele>
        <time>2020-07-19T14:50:26.000Z</time>
      </trkpt>
      <trkpt lat="44.25869" lon="1.13978">
        <ele>183</ele>
        <time>2020-07-19T14:50:37.000Z</time>
      </trkpt>
      <trkpt lat="44.25864" lon="1.13967">
        <ele>182</ele>
        <time>2020-07-19T14:50:55.000Z</time>
      </trkpt>
      <trkpt lat="44.25861" lon="1.13958">
        <ele>184</ele>
        <time>2020-07-19T14:51:07.000Z</time>
      </trkpt>
      <trkpt lat="44.25856" lon="1.13947">
        <ele>185</ele>
        <time>2020-07-19T14:51:18.000Z</time>
      </trkpt>
      <trkpt lat="44.2585" lon="1.13939">
        <ele>188</ele>
        <time>2020-07-19T14:51:29.000Z</time>
      </trkpt>
      <trkpt lat="44.25845" lon="1.13928">
        <ele>190</ele>
        <time>2020-07-19T14:51:40.000Z</time>
      </trkpt>
      <trkpt lat="44.25842" lon="1.13916">
        <ele>191</ele>
        <time>2020-07-19T14:51:56.000Z</time>
      </trkpt>
      <trkpt lat="44.25837" lon="1.13906">
        <ele>193</ele>
        <time>2020-07-19T14:52:11.000Z</time>
      </trkpt>
      <trkpt lat="44.25832" lon="1.13898">
        <ele>197</ele>
        <time>2020-07-19T14:52:26.000Z</time>
      </trkpt>
      <trkpt lat="44.25827" lon="1.13888">
        <ele>198</ele>
        <time>2020-07-19T14:52:36.000Z</time>
      </trkpt>
      <trkpt lat="44.25825" lon="1.13878">
        <ele>199</ele>
        <time>2020-07-19T14:52:44.000Z</time>
      </trkpt>
      <trkpt lat="44.25822" lon="1.13867">
        <ele>201</ele>
        <time>2020-07-19T14:52:52.000Z</time>
      </trkpt>
      <trkpt lat="44.25821" lon="1.13856">
        <ele>203</ele>
        <time>2020-07-19T14:52:59.000Z</time>
      </trkpt>
      <trkpt lat="44.25819" lon="1.13844">
        <ele>204</ele>
        <time>2020-07-19T14:53:07.000Z</time>
      </trkpt>
      <trkpt lat="44.25814" lon="1.13834">
        <ele>203</ele>
        <time>2020-07-19T14:53:18.000Z</time>
      </trkpt>
      <trkpt lat="44.25812" lon="1.13846">
        <ele>205</ele>
        <time>2020-07-19T14:53:30.000Z</time>
      </trkpt>
      <trkpt lat="44.25809" lon="1.13858">
        <ele>208</ele>
        <time>2020-07-19T14:53:40.000Z</time>
      </trkpt>
      <trkpt lat="44.25804" lon="1.13867">
        <ele>210</ele>
        <time>2020-07-19T14:53:49.000Z</time>
      </trkpt>
      <trkpt lat="44.258" lon="1.13877">
        <ele>210</ele>
        <time>2020-07-19T14:53:58.000Z</time>
      </trkpt>
      <trkpt lat="44.25798" lon="1.13889">
        <ele>210</ele>
        <time>2020-07-19T14:54:07.000Z</time>
      </trkpt>
      <trkpt lat="44.25796" lon="1.139">
        <ele>210</ele>
        <time>2020-07-19T14:54:16.000Z</time>
      </trkpt>
      <trkpt lat="44.25793" lon="1.13911">
        <ele>210</ele>
        <time>2020-07-19T14:54:25.000Z</time>
      </trkpt>
      <trkpt lat="44.25789" lon="1.13922">
        <ele>210</ele>
        <time>2020-07-19T14:54:33.000Z</time>
      </trkpt>
      <trkpt lat="44.25783" lon="1.13932">
        <ele>211</ele>
        <time>2020-07-19T14:54:42.000Z</time>
      </trkpt>
      <trkpt lat="44.25775" lon="1.1393">
        <ele>214</ele>
        <time>2020-07-19T14:54:55.000Z</time>
      </trkpt>
      <trkpt lat="44.25771" lon="1.13921">
        <ele>216</ele>
        <time>2020-07-19T14:55:03.000Z</time>
      </trkpt>
      <trkpt lat="44.25767" lon="1.1391">
        <ele>216</ele>
        <time>2020-07-19T14:55:10.000Z</time>
      </trkpt>
      <trkpt lat="44.25762" lon="1.139">
        <ele>217</ele>
        <time>2020-07-19T14:55:24.000Z</time>
      </trkpt>
      <trkpt lat="44.25759" lon="1.13891">
        <ele>219</ele>
        <time>2020-07-19T14:55:35.000Z</time>
      </trkpt>
      <trkpt lat="44.25757" lon="1.1388">
        <ele>219</ele>
        <time>2020-07-19T14:55:39.000Z</time>
      </trkpt>
      <trkpt lat="44.25749" lon="1.13876">
        <ele>220</ele>
        <time>2020-07-19T14:55:44.000Z</time>
      </trkpt>
      <trkpt lat="44.25742" lon="1.13872">
        <ele>219</ele>
        <time>2020-07-19T14:55:50.000Z</time>
      </trkpt>
      <trkpt lat="44.25734" lon="1.13871">
        <ele>217</ele>
        <time>2020-07-19T14:55:55.000Z</time>
      </trkpt>
      <trkpt lat="44.25725" lon="1.13869">
        <ele>216</ele>
        <time>2020-07-19T14:55:59.000Z</time>
      </trkpt>
      <trkpt lat="44.25717" lon="1.13866">
        <ele>217</ele>
        <time>2020-07-19T14:56:05.000Z</time>
      </trkpt>
      <trkpt lat="44.25709" lon="1.1386">
        <ele>220</ele>
        <time>2020-07-19T14:56:11.000Z</time>
      </trkpt>
      <trkpt lat="44.25701" lon="1.13853">
        <ele>222</ele>
        <time>2020-07-19T14:56:16.000Z</time>
      </trkpt>
      <trkpt lat="44.25695" lon="1.13846">
        <ele>222</ele>
        <time>2020-07-19T14:56:21.000Z</time>
      </trkpt>
      <trkpt lat="44.25689" lon="1.13837">
        <ele>223</ele>
        <time>2020-07-19T14:56:29.000Z</time>
      </trkpt>
      <trkpt lat="44.25685" lon="1.13826">
        <ele>223</ele>
        <time>2020-07-19T14:56:40.000Z</time>
      </trkpt>
      <trkpt lat="44.25692" lon="1.13833">
        <ele>225</ele>
        <time>2020-07-19T14:57:04.000Z</time>
      </trkpt>
      <trkpt lat="44.25695" lon="1.13834">
        <ele>228</ele>
        <time>2020-07-19T15:02:24.000Z</time>
      </trkpt>
      <trkpt lat="44.25584" lon="1.1365">
        <ele>211.64796</ele>
      </trkpt>
      <trkpt lat="44.25542" lon="1.13589">
        <ele>208.6906</ele>
      </trkpt>
      <trkpt lat="44.25505" lon="1.13482">
        <ele>200.5264</ele>
      </trkpt>
      <trkpt lat="44.25492" lon="1.13475">
        <ele>199.50503</ele>
      </trkpt>
      <trkpt lat="44.25475" lon="1.13487">
        <ele>197.29603</ele>
      </trkpt>
      <trkpt lat="44.25463" lon="1.13518">
        <ele>194.62175</ele>
      </trkpt>
      <trkpt lat="44.25451" lon="1.13592">
        <ele>188.71685</ele>
      </trkpt>
      <trkpt lat="44.25476" lon="1.13689">
        <ele>183.56814</ele>
      </trkpt>
      <trkpt lat="44.25503" lon="1.13759">
        <ele>181.95844</ele>
      </trkpt>
      <trkpt lat="44.25513" lon="1.13799">
        <ele>182.4574</ele>
      </trkpt>
      <trkpt lat="44.25503" lon="1.13823">
        <ele>180.78973</ele>
      </trkpt>
      <trkpt lat="44.25487" lon="1.1379">
        <ele>179.38372</ele>
      </trkpt>
      <trkpt lat="44.25464" lon="1.13728">
        <ele>178.16021</ele>
      </trkpt>
      <trkpt lat="44.25418" lon="1.13671">
        <ele>173.98035</ele>
      </trkpt>
      <trkpt lat="44.25365" lon="1.13637">
        <ele>170.27052</ele>
      </trkpt>
      <trkpt lat="44.25319" lon="1.13632">
        <ele>166.67728</ele>
      </trkpt>
      <trkpt lat="44.25301" lon="1.13569">
        <ele>165.91372</ele>
      </trkpt>
      <trkpt lat="44.25317" lon="1.13631">
        <ele>166.50735</ele>
      </trkpt>
      <trkpt lat="44.25301" lon="1.13626">
        <ele>164.69935</ele>
      </trkpt>
      <trkpt lat="44.25296" lon="1.13621">
        <ele>163.8953</ele>
      </trkpt>
      <trkpt lat="44.25263" lon="1.13548">
        <ele>160.18132</ele>
      </trkpt>
      <trkpt lat="44.25213" lon="1.13492">
        <ele>155.1588</ele>
      </trkpt>
      <trkpt lat="44.25078" lon="1.13431">
        <ele>143.54895</ele>
      </trkpt>
      <trkpt lat="44.25032" lon="1.13388">
        <ele>139.05782</ele>
      </trkpt>
      <trkpt lat="44.25008" lon="1.13408">
        <ele>134.95267</ele>
      </trkpt>
      <trkpt lat="44.24988" lon="1.13494">
        <ele>129.23386</ele>
      </trkpt>
      <trkpt lat="44.25037" lon="1.13691">
        <ele>120.1551</ele>
      </trkpt>
      <trkpt lat="44.25033" lon="1.13729">
        <ele>117.90176</ele>
      </trkpt>
      <trkpt lat="44.25031" lon="1.1381">
        <ele>115.30824</ele>
      </trkpt>
      <trkpt lat="44.25067" lon="1.13941">
        <ele>110.39287</ele>
      </trkpt>
      <trkpt lat="44.25136" lon="1.14035">
        <ele>110.48127</ele>
      </trkpt>
      <trkpt lat="44.25082" lon="1.14094">
        <ele>105.89224</ele>
      </trkpt>
      <trkpt lat="44.24977" lon="1.14314">
        <ele>105.13291</ele>
      </trkpt>
      <trkpt lat="44.24844" lon="1.14594">
        <ele>111.79144</ele>
      </trkpt>
      <trkpt lat="44.24887" lon="1.14745">
        <ele>120.17312</ele>
      </trkpt>
      <trkpt lat="44.24776" lon="1.14854">
        <ele>130.87263</ele>
      </trkpt>
      <trkpt lat="44.24698" lon="1.14983">
        <ele>134.4374</ele>
      </trkpt>
      <trkpt lat="44.24593" lon="1.15024">
        <ele>147.96104</ele>
      </trkpt>
      <trkpt lat="44.2453" lon="1.15139">
        <ele>164.06801</ele>
      </trkpt>
      <trkpt lat="44.24379" lon="1.15212">
        <ele>182.52851</ele>
      </trkpt>
      <trkpt lat="44.24275" lon="1.15315">
        <ele>210.07471</ele>
      </trkpt>
      <trkpt lat="44.24221" lon="1.1529">
        <ele>210.80253</ele>
      </trkpt>
      <trkpt lat="44.24172" lon="1.15324">
        <ele>213.34266</ele>
      </trkpt>
      <trkpt lat="44.24169" lon="1.15545">
        <ele>225.39834</ele>
      </trkpt>
    </trkseg>
  </trk>
</gpx>